Time,TemperatureF,DewpointF,PressureIn,WindDirection,WindDirectionDegrees,WindSpeedMPH,WindSpeedGustMPH,Humidity,HourlyPrecipIn,Conditions,Clouds,dailyrainin,SoftwareType,DateUTC
2013-05-22 00:00:00,50.5,48.3,29.96,East,91,0.0,2.0,92,0.00,,---,0.00,VWS V14.00,2013-05-22 04:00:00,
2013-05-22 00:01:00,50.5,48.3,29.96,East,91,0.0,2.0,92,0.00,,---,0.00,VWS V14.00,2013-05-22 04:01:00,
2013-05-22 00:06:00,50.5,48.3,29.96,East,91,0.0,4.0,92,0.00,,---,0.00,VWS V14.00,2013-05-22 04:06:00,
2013-05-22 00:11:00,50.4,48.2,29.96,North,5,0.0,9.0,92,0.00,,---,0.00,VWS V14.00,2013-05-22 04:11:00,
2013-05-22 00:15:00,50.4,48.2,29.95,ENE,70,0.0,9.0,92,0.00,,---,0.00,VWS V14.00,2013-05-22 04:15:00,
2013-05-22 00:16:00,50.2,48.0,29.95,East,93,1.0,5.0,92,0.00,,---,0.00,VWS V14.00,2013-05-22 04:16:00,
2013-05-22 00:21:00,50.2,48.0,29.95,NW,304,0.0,6.0,92,0.00,,---,0.00,VWS V14.00,2013-05-22 04:21:00,
2013-05-22 00:26:00,50.2,48.0,29.95,NW,315,3.0,7.0,92,0.00,,---,0.00,VWS V14.00,2013-05-22 04:26:00,
2013-05-22 00:27:00,50.2,48.0,29.95,NW,317,1.0,7.0,92,0.00,,---,0.00,VWS V14.00,2013-05-22 04:27:00,
2013-05-22 00:30:00,50.2,48.0,30.01,NNW,335,2.0,7.0,92,0.00,,---,0.00,VWS V14.00,2013-05-22 04:30:00,
2013-05-22 00:31:00,50.2,48.0,30.01,NNW,335,0.0,2.0,92,0.00,,---,0.00,VWS V14.00,2013-05-22 04:31:00,
2013-05-22 00:32:00,50.2,48.0,30.01,NNW,335,0.0,2.0,92,0.00,,---,0.00,VWS V14.00,2013-05-22 04:32:00,
2013-05-22 00:36:00,50.2,48.0,30.01,NNW,328,2.0,4.0,92,0.00,,---,0.00,VWS V14.00,2013-05-22 04:36:00,
2013-05-22 00:37:00,50.2,48.0,30.01,NNW,328,0.0,4.0,92,0.00,,---,0.00,VWS V14.00,2013-05-22 04:37:00,
2013-05-22 00:41:00,50.2,48.3,30.01,NNW,328,1.0,4.0,93,0.00,,---,0.01,VWS V14.00,2013-05-22 04:41:00,
2013-05-22 00:42:00,50.2,48.3,30.01,NNW,328,1.0,4.0,93,0.00,,---,0.01,VWS V14.00,2013-05-22 04:42:00,
2013-05-22 00:45:00,50.2,48.3,30.01,NW,319,4.0,4.0,93,0.00,,---,0.01,VWS V14.00,2013-05-22 04:45:00,
2013-05-22 00:46:00,50.2,48.0,30.01,NW,318,0.0,5.0,92,0.00,,---,0.01,VWS V14.00,2013-05-22 04:46:00,
2013-05-22 00:47:00,50.2,48.0,30.01,NW,318,0.0,5.0,92,0.00,,---,0.01,VWS V14.00,2013-05-22 04:47:00,
2013-05-22 00:51:00,50.1,48.2,30.01,ESE,118,0.0,5.0,93,0.00,,---,0.01,VWS V14.00,2013-05-22 04:51:00,
2013-05-22 00:52:00,50.1,48.2,30.01,ESE,113,0.0,5.0,93,0.00,,---,0.01,VWS V14.00,2013-05-22 04:52:00,
2013-05-22 00:56:00,50.1,48.2,30.01,ESE,110,0.0,5.0,93,0.00,,---,0.01,VWS V14.00,2013-05-22 04:56:00,
2013-05-22 00:57:00,49.9,48.0,30.01,ESE,110,2.0,5.0,93,0.00,,---,0.01,VWS V14.00,2013-05-22 04:57:00,
2013-05-22 00:58:00,49.9,48.0,30.01,ESE,110,0.0,5.0,93,0.00,,---,0.02,VWS V14.00,2013-05-22 04:58:00,
2013-05-22 01:00:00,49.9,48.0,29.95,East,84,3.0,5.0,93,0.04,,---,0.02,VWS V14.00,2013-05-22 05:00:00,
2013-05-22 01:02:00,49.9,48.0,29.95,ESE,118,2.0,3.0,93,0.04,,---,0.03,VWS V14.00,2013-05-22 05:02:00,
2013-05-22 01:03:00,49.9,48.0,29.95,ESE,117,0.0,3.0,93,0.17,,---,0.03,VWS V14.00,2013-05-22 05:03:00,
2013-05-22 01:07:00,49.9,48.0,29.95,ESE,117,1.0,3.0,93,0.11,,---,0.03,VWS V14.00,2013-05-22 05:07:00,
2013-05-22 01:08:00,49.9,48.0,29.95,ESE,116,1.0,3.0,93,0.09,,---,0.03,VWS V14.00,2013-05-22 05:08:00,
2013-05-22 01:12:00,49.8,47.9,29.95,ESE,113,0.0,3.0,93,0.06,,---,0.03,VWS V14.00,2013-05-22 05:12:00,
2013-05-22 01:13:00,49.8,47.9,29.92,ESE,113,0.0,3.0,93,0.05,,---,0.03,VWS V14.00,2013-05-22 05:13:00,
2013-05-22 01:15:00,49.8,47.9,29.92,ESE,114,2.0,3.0,93,0.05,,---,0.03,VWS V14.00,2013-05-22 05:15:00,
2013-05-22 01:17:00,49.6,47.7,29.92,ESE,103,0.0,4.0,93,0.05,,---,0.04,VWS V14.00,2013-05-22 05:17:00,
2013-05-22 01:18:00,49.6,47.7,29.92,ESE,103,0.0,4.0,93,0.05,,---,0.04,VWS V14.00,2013-05-22 05:18:00,
2013-05-22 01:22:00,49.6,47.7,29.92,ESE,106,0.0,4.0,93,0.05,,---,0.04,VWS V14.00,2013-05-22 05:22:00,
2013-05-22 01:23:00,49.6,47.7,29.92,East,92,3.0,4.0,93,0.05,,---,0.04,VWS V14.00,2013-05-22 05:23:00,
2013-05-22 01:27:00,49.5,47.6,29.92,ESE,115,3.0,4.0,93,0.05,,---,0.04,VWS V14.00,2013-05-22 05:27:00,
2013-05-22 01:28:00,49.5,47.6,29.92,ESE,115,0.0,4.0,93,0.04,,---,0.04,VWS V14.00,2013-05-22 05:28:00,
2013-05-22 01:30:00,49.5,47.6,29.89,ESE,116,1.0,4.0,93,0.04,,---,0.04,VWS V14.00,2013-05-22 05:30:00,
2013-05-22 01:32:00,49.5,47.6,29.89,East,95,0.0,3.0,93,0.00,,---,0.04,VWS V14.00,2013-05-22 05:32:00,
2013-05-22 01:33:00,49.5,47.6,29.89,East,95,0.0,3.0,93,0.00,,---,0.04,VWS V14.00,2013-05-22 05:33:00,
2013-05-22 01:34:00,49.5,47.6,29.89,East,94,1.0,3.0,93,0.00,,---,0.04,VWS V14.00,2013-05-22 05:34:00,
2013-05-22 01:37:00,49.5,47.6,29.89,NE,54,0.0,3.0,93,0.00,,---,0.04,VWS V14.00,2013-05-22 05:37:00,
2013-05-22 01:38:00,49.5,47.6,29.89,NE,54,0.0,3.0,93,0.00,,---,0.04,VWS V14.00,2013-05-22 05:38:00,
2013-05-22 01:39:00,49.5,47.6,29.89,NE,54,0.0,3.0,93,0.00,,---,0.04,VWS V14.00,2013-05-22 05:39:00,
2013-05-22 01:42:00,49.6,47.7,29.89,NE,56,1.0,3.0,93,0.00,,---,0.04,VWS V14.00,2013-05-22 05:42:00,
2013-05-22 01:43:00,49.6,47.7,29.89,NE,56,1.0,3.0,93,0.00,,---,0.04,VWS V14.00,2013-05-22 05:43:00,
2013-05-22 01:44:00,49.5,47.6,29.88,East,85,1.0,2.0,93,0.00,,---,0.04,VWS V14.00,2013-05-22 05:44:00,
2013-05-22 01:45:00,49.5,47.6,29.88,East,85,2.0,3.0,93,0.00,,---,0.04,VWS V14.00,2013-05-22 05:45:00,
2013-05-22 01:47:00,49.5,47.6,29.88,East,87,0.0,2.0,93,0.00,,---,0.04,VWS V14.00,2013-05-22 05:47:00,
2013-05-22 01:48:00,49.5,47.6,29.88,East,87,0.0,2.0,93,0.00,,---,0.04,VWS V14.00,2013-05-22 05:48:00,
2013-05-22 01:49:00,49.5,47.8,29.88,East,87,0.0,2.0,94,0.00,,---,0.04,VWS V14.00,2013-05-22 05:49:00,
2013-05-22 01:52:00,49.6,47.7,29.88,East,95,0.0,3.0,93,0.00,,---,0.04,VWS V14.00,2013-05-22 05:52:00,
2013-05-22 01:53:00,49.5,47.6,29.88,East,96,0.0,3.0,93,0.00,,---,0.04,VWS V14.00,2013-05-22 05:53:00,
2013-05-22 01:54:00,49.5,47.6,29.88,East,85,0.0,3.0,93,0.00,,---,0.04,VWS V14.00,2013-05-22 05:54:00,
2013-05-22 01:58:00,49.6,47.7,29.86,SSW,210,0.0,3.0,93,0.00,,---,0.04,VWS V14.00,2013-05-22 05:58:00,
2013-05-22 01:59:00,49.6,48.0,29.86,SSW,210,0.0,0.0,94,0.00,,---,0.04,VWS V14.00,2013-05-22 05:59:00,
2013-05-22 02:00:00,49.6,48.0,29.86,SSW,210,0.0,3.0,94,0.00,,---,0.04,VWS V14.00,2013-05-22 06:00:00,
2013-05-22 02:03:00,49.6,48.0,29.86,SSW,207,0.0,1.0,94,0.00,,---,0.04,VWS V14.00,2013-05-22 06:03:00,
2013-05-22 02:04:00,49.8,48.2,29.86,SSW,209,1.0,2.0,94,0.00,,---,0.04,VWS V14.00,2013-05-22 06:04:00,
2013-05-22 02:08:00,49.8,48.2,29.86,SSW,197,0.0,2.0,94,0.00,,---,0.04,VWS V14.00,2013-05-22 06:08:00,
2013-05-22 02:09:00,49.8,48.2,29.86,South,173,0.0,2.0,94,0.00,,---,0.05,VWS V14.00,2013-05-22 06:09:00,
2013-05-22 02:13:00,49.8,48.2,29.86,SSE,161,1.0,2.0,94,0.23,,---,0.07,VWS V14.00,2013-05-22 06:13:00,
2013-05-22 02:14:00,49.8,48.2,29.86,SSE,161,0.0,2.0,94,0.23,,---,0.07,VWS V14.00,2013-05-22 06:14:00,
2013-05-22 02:15:00,49.8,48.2,29.86,South,172,2.0,2.0,94,0.23,,---,0.07,VWS V14.00,2013-05-22 06:15:00,
2013-05-22 02:19:00,49.8,48.2,29.86,South,181,0.0,5.0,94,0.12,,---,0.07,VWS V14.00,2013-05-22 06:19:00,
2013-05-22 02:20:00,49.8,48.2,29.86,East,82,1.0,5.0,94,0.08,,---,0.07,VWS V14.00,2013-05-22 06:20:00,
2013-05-22 02:24:00,49.8,48.2,29.86,NW,314,0.0,5.0,94,0.06,,---,0.07,VWS V14.00,2013-05-22 06:24:00,
2013-05-22 02:25:00,49.8,48.2,29.86,SSW,212,0.0,5.0,94,0.05,,---,0.07,VWS V14.00,2013-05-22 06:25:00,
2013-05-22 02:29:00,49.8,48.2,29.84,SSW,212,0.0,5.0,94,0.04,,---,0.07,VWS V14.00,2013-05-22 06:29:00,
2013-05-22 02:30:00,49.8,48.2,29.84,SSW,212,0.0,1.0,94,0.00,,---,0.07,VWS V14.00,2013-05-22 06:30:00,
2013-05-22 02:34:00,49.8,48.2,29.84,SW,221,0.0,2.0,94,0.00,,---,0.07,VWS V14.00,2013-05-22 06:34:00,
2013-05-22 02:35:00,49.8,48.2,29.84,SW,221,0.0,2.0,94,0.00,,---,0.07,VWS V14.00,2013-05-22 06:35:00,
2013-05-22 02:39:00,49.9,48.2,29.84,SW,221,0.0,2.0,94,0.00,,---,0.07,VWS V14.00,2013-05-22 06:39:00,
2013-05-22 02:40:00,49.9,48.2,29.84,SW,221,0.0,2.0,94,0.00,,---,0.07,VWS V14.00,2013-05-22 06:40:00,
2013-05-22 02:44:00,49.9,48.2,29.89,SW,221,0.0,0.0,94,0.00,,---,0.07,VWS V14.00,2013-05-22 06:44:00,
2013-05-22 02:45:00,49.9,48.2,29.89,SW,221,0.0,0.0,94,0.00,,---,0.07,VWS V14.00,2013-05-22 06:45:00,
2013-05-22 02:46:00,50.1,48.4,29.89,SW,221,0.0,0.0,94,0.00,,---,0.07,VWS V14.00,2013-05-22 06:46:00,
2013-05-22 02:49:00,50.1,48.4,29.89,SW,221,0.0,1.0,94,0.00,,---,0.07,VWS V14.00,2013-05-22 06:49:00,
2013-05-22 02:50:00,50.1,48.4,29.89,SW,221,0.0,1.0,94,0.00,,---,0.07,VWS V14.00,2013-05-22 06:50:00,
2013-05-22 02:51:00,50.1,48.4,29.89,SW,221,0.0,1.0,94,0.00,,---,0.07,VWS V14.00,2013-05-22 06:51:00,
2013-05-22 02:54:00,50.1,48.4,29.89,SW,221,0.0,1.0,94,0.00,,---,0.07,VWS V14.00,2013-05-22 06:54:00,
2013-05-22 02:55:00,50.1,48.4,29.89,SW,221,0.0,1.0,94,0.00,,---,0.07,VWS V14.00,2013-05-22 06:55:00,
2013-05-22 02:56:00,50.1,48.4,29.89,SW,221,0.0,1.0,94,0.00,,---,0.07,VWS V14.00,2013-05-22 06:56:00,
2013-05-22 02:59:00,50.1,48.4,29.90,SW,221,0.0,0.0,94,0.00,,---,0.07,VWS V14.00,2013-05-22 06:59:00,
2013-05-22 03:00:00,50.1,48.4,29.90,SW,221,0.0,0.0,94,0.00,,---,0.07,VWS V14.00,2013-05-22 07:00:00,
2013-05-22 03:01:00,50.1,48.4,29.90,SW,221,0.0,0.0,94,0.00,,---,0.07,VWS V14.00,2013-05-22 07:01:00,
2013-05-22 03:04:00,50.2,48.5,29.90,SW,221,0.0,0.0,94,0.00,,---,0.07,VWS V14.00,2013-05-22 07:04:00,
2013-05-22 03:05:00,50.2,48.5,29.90,SW,221,0.0,0.0,94,0.00,,---,0.07,VWS V14.00,2013-05-22 07:05:00,
2013-05-22 03:06:00,50.2,48.5,29.90,SW,221,0.0,0.0,94,0.00,,---,0.07,VWS V14.00,2013-05-22 07:06:00,
2013-05-22 03:10:00,50.2,48.5,29.90,SW,221,0.0,0.0,94,0.00,,---,0.07,VWS V14.00,2013-05-22 07:10:00,
2013-05-22 03:11:00,50.2,48.5,29.90,SW,221,0.0,0.0,94,0.00,,---,0.07,VWS V14.00,2013-05-22 07:11:00,
2013-05-22 03:12:00,50.2,48.5,29.90,SW,221,0.0,0.0,94,0.00,,---,0.07,VWS V14.00,2013-05-22 07:12:00,
2013-05-22 03:15:00,50.4,48.7,29.91,SW,221,0.0,0.0,94,0.00,,---,0.07,VWS V14.00,2013-05-22 07:15:00,
2013-05-22 03:16:00,50.4,48.7,29.91,SW,221,0.0,0.0,94,0.00,,---,0.07,VWS V14.00,2013-05-22 07:16:00,
2013-05-22 03:17:00,50.4,48.7,29.91,SW,221,0.0,0.0,94,0.00,,---,0.07,VWS V14.00,2013-05-22 07:17:00,
2013-05-22 03:20:00,50.4,48.7,29.91,SW,221,0.0,0.0,94,0.00,,---,0.07,VWS V14.00,2013-05-22 07:20:00,
2013-05-22 03:21:00,50.4,48.7,29.91,SW,221,0.0,0.0,94,0.00,,---,0.07,VWS V14.00,2013-05-22 07:21:00,
2013-05-22 03:22:00,50.4,48.7,29.91,SW,221,0.0,0.0,94,0.00,,---,0.07,VWS V14.00,2013-05-22 07:22:00,
2013-05-22 03:25:00,50.4,48.7,29.91,SW,221,0.0,0.0,94,0.00,,---,0.07,VWS V14.00,2013-05-22 07:25:00,
2013-05-22 03:26:00,50.4,48.7,29.91,SW,221,0.0,0.0,94,0.00,,---,0.07,VWS V14.00,2013-05-22 07:26:00,
2013-05-22 03:27:00,50.4,48.7,29.91,SW,221,0.0,0.0,94,0.00,,---,0.07,VWS V14.00,2013-05-22 07:27:00,
2013-05-22 03:30:00,50.4,48.7,29.89,SW,221,0.0,0.0,94,0.00,,---,0.07,VWS V14.00,2013-05-22 07:30:00,
2013-05-22 03:31:00,50.4,48.7,29.89,SW,221,0.0,0.0,94,0.00,,---,0.07,VWS V14.00,2013-05-22 07:31:00,
2013-05-22 03:33:00,50.4,48.7,29.89,SW,221,0.0,1.0,94,0.00,,---,0.07,VWS V14.00,2013-05-22 07:33:00,
2013-05-22 03:35:00,50.4,48.7,29.89,SW,221,0.0,1.0,94,0.00,,---,0.07,VWS V14.00,2013-05-22 07:35:00,
2013-05-22 03:36:00,50.4,48.7,29.89,SW,221,0.0,1.0,94,0.00,,---,0.07,VWS V14.00,2013-05-22 07:36:00,
2013-05-22 03:38:00,50.5,48.8,29.89,NNW,333,2.0,4.0,94,0.00,,---,0.07,VWS V14.00,2013-05-22 07:38:00,
2013-05-22 03:40:00,50.5,48.8,29.89,NNW,333,3.0,5.0,94,0.00,,---,0.07,VWS V14.00,2013-05-22 07:40:00,
2013-05-22 03:41:00,50.5,48.8,29.89,NNW,343,1.0,5.0,94,0.00,,---,0.07,VWS V14.00,2013-05-22 07:41:00,
2013-05-22 03:42:00,50.5,48.8,29.89,NNW,343,0.0,5.0,94,0.00,,---,0.07,VWS V14.00,2013-05-22 07:42:00,
2013-05-22 03:43:00,50.7,49.0,29.96,NNW,343,3.0,5.0,94,0.00,,---,0.07,VWS V14.00,2013-05-22 07:43:00,
2013-05-22 03:45:00,50.7,49.0,29.96,SW,224,0.0,3.0,94,0.00,,---,0.07,VWS V14.00,2013-05-22 07:45:00,
2013-05-22 03:46:00,50.7,49.0,29.96,SW,224,0.0,3.0,94,0.00,,---,0.07,VWS V14.00,2013-05-22 07:46:00,
2013-05-22 03:47:00,50.7,49.0,29.96,SW,224,0.0,3.0,94,0.00,,---,0.07,VWS V14.00,2013-05-22 07:47:00,
2013-05-22 03:48:00,50.7,49.0,29.96,SW,224,1.0,3.0,94,0.00,,---,0.07,VWS V14.00,2013-05-22 07:48:00,
2013-05-22 03:51:00,50.7,49.0,29.96,SW,214,1.0,6.0,94,0.00,,---,0.07,VWS V14.00,2013-05-22 07:51:00,
2013-05-22 03:52:00,50.7,49.0,29.96,WSW,255,2.0,6.0,94,0.00,,---,0.07,VWS V14.00,2013-05-22 07:52:00,
2013-05-22 03:53:00,50.7,49.0,29.96,South,177,0.0,6.0,94,0.00,,---,0.07,VWS V14.00,2013-05-22 07:53:00,
2013-05-22 03:56:00,50.7,49.0,29.96,SE,146,0.0,6.0,94,0.00,,---,0.07,VWS V14.00,2013-05-22 07:56:00,
2013-05-22 03:57:00,50.7,49.0,29.96,SE,146,0.0,6.0,94,1.20,,---,0.09,VWS V14.00,2013-05-22 07:57:00,
2013-05-22 03:58:00,50.7,49.0,29.96,SE,146,0.0,6.0,94,1.20,,---,0.10,VWS V14.00,2013-05-22 07:58:00,
2013-05-22 03:59:00,50.7,49.0,29.93,SE,146,2.0,6.0,94,0.66,,---,0.10,VWS V14.00,2013-05-22 07:59:00,
2013-05-22 04:00:00,50.7,49.0,29.93,South,177,2.0,6.0,94,0.53,,---,0.11,VWS V14.00,2013-05-22 08:00:00,
2013-05-22 04:01:00,50.5,48.8,29.93,South,186,0.0,4.0,94,0.66,,---,0.13,VWS V14.00,2013-05-22 08:01:00,
2013-05-22 04:02:00,50.5,48.8,29.93,South,186,1.0,4.0,94,0.50,,---,0.14,VWS V14.00,2013-05-22 08:02:00,
2013-05-22 04:03:00,50.5,48.8,29.93,South,174,1.0,4.0,94,0.50,,---,0.15,VWS V14.00,2013-05-22 08:03:00,
2013-05-22 04:04:00,50.5,48.8,29.93,South,173,0.0,4.0,94,0.56,,---,0.16,VWS V14.00,2013-05-22 08:04:00,
2013-05-22 04:06:00,50.5,48.8,29.93,South,173,0.0,4.0,94,0.51,,---,0.19,VWS V14.00,2013-05-22 08:06:00,
2013-05-22 04:07:00,50.4,48.7,29.93,South,173,0.0,4.0,94,0.49,,---,0.19,VWS V14.00,2013-05-22 08:07:00,
2013-05-22 04:08:00,50.4,48.7,29.93,South,174,0.0,4.0,94,0.30,,---,0.19,VWS V14.00,2013-05-22 08:08:00,
2013-05-22 04:09:00,50.4,48.7,29.93,South,174,0.0,4.0,94,0.24,,---,0.20,VWS V14.00,2013-05-22 08:09:00,
2013-05-22 04:11:00,50.5,48.8,29.93,South,174,0.0,4.0,94,0.23,,---,0.20,VWS V14.00,2013-05-22 08:11:00,
2013-05-22 04:12:00,50.5,48.8,29.93,South,174,0.0,4.0,94,0.17,,---,0.20,VWS V14.00,2013-05-22 08:12:00,
2013-05-22 04:13:00,50.5,48.8,29.89,South,174,0.0,4.0,94,0.14,,---,0.21,VWS V14.00,2013-05-22 08:13:00,
2013-05-22 04:14:00,50.5,48.8,29.89,South,174,0.0,0.0,94,0.14,,---,0.21,VWS V14.00,2013-05-22 08:14:00,
2013-05-22 04:15:00,50.5,48.8,29.89,South,174,0.0,4.0,94,0.14,,---,0.21,VWS V14.00,2013-05-22 08:15:00,
2013-05-22 04:16:00,50.4,48.7,29.89,South,174,0.0,1.0,94,0.14,,---,0.21,VWS V14.00,2013-05-22 08:16:00,
2013-05-22 04:17:00,50.4,48.7,29.89,South,174,0.0,1.0,94,0.14,,---,0.21,VWS V14.00,2013-05-22 08:17:00,
2013-05-22 04:18:00,50.4,48.7,29.89,South,174,0.0,1.0,94,0.11,,---,0.21,VWS V14.00,2013-05-22 08:18:00,
2013-05-22 04:19:00,50.4,48.7,29.89,South,174,0.0,1.0,94,0.10,,---,0.22,VWS V14.00,2013-05-22 08:19:00,
2013-05-22 04:21:00,50.4,48.7,29.89,South,174,0.0,1.0,94,0.09,,---,0.22,VWS V14.00,2013-05-22 08:21:00,
2013-05-22 04:23:00,50.4,48.7,29.89,South,173,1.0,1.0,94,0.09,,---,0.22,VWS V14.00,2013-05-22 08:23:00,
2013-05-22 04:24:00,50.4,48.7,29.89,South,173,0.0,1.0,94,0.09,,---,0.22,VWS V14.00,2013-05-22 08:24:00,
2013-05-22 04:26:00,50.4,48.7,29.89,South,173,0.0,1.0,94,0.09,,---,0.22,VWS V14.00,2013-05-22 08:26:00,
2013-05-22 04:28:00,50.4,48.7,29.89,South,173,0.0,1.0,94,0.07,,---,0.22,VWS V14.00,2013-05-22 08:28:00,
2013-05-22 04:29:00,50.4,48.7,29.89,South,173,0.0,0.0,94,0.06,,---,0.22,VWS V14.00,2013-05-22 08:29:00,
2013-05-22 04:30:00,50.4,48.7,29.89,South,173,0.0,1.0,94,0.06,,---,0.22,VWS V14.00,2013-05-22 08:30:00,
2013-05-22 04:32:00,50.4,48.7,29.89,South,173,0.0,0.0,94,0.06,,---,0.23,VWS V14.00,2013-05-22 08:32:00,
2013-05-22 04:33:00,50.4,48.7,29.89,South,173,0.0,0.0,94,0.06,,---,0.23,VWS V14.00,2013-05-22 08:33:00,
2013-05-22 04:34:00,50.4,48.7,29.89,South,173,0.0,0.0,94,0.06,,---,0.23,VWS V14.00,2013-05-22 08:34:00,
2013-05-22 04:37:00,50.4,48.7,29.89,South,173,0.0,0.0,94,0.06,,---,0.23,VWS V14.00,2013-05-22 08:37:00,
2013-05-22 04:39:00,50.4,48.7,29.89,South,173,0.0,0.0,94,0.06,,---,0.23,VWS V14.00,2013-05-22 08:39:00,
2013-05-22 04:40:00,50.4,48.7,29.89,South,173,0.0,0.0,94,0.06,,---,0.23,VWS V14.00,2013-05-22 08:40:00,
2013-05-22 04:42:00,50.4,48.7,29.89,South,173,0.0,1.0,94,0.05,,---,0.23,VWS V14.00,2013-05-22 08:42:00,
2013-05-22 04:44:00,50.4,48.7,29.87,South,173,0.0,0.0,94,0.04,,---,0.23,VWS V14.00,2013-05-22 08:44:00,
2013-05-22 04:45:00,50.4,48.7,29.87,South,173,0.0,0.0,94,0.04,,---,0.23,VWS V14.00,2013-05-22 08:45:00,
2013-05-22 04:47:00,50.4,48.7,29.87,South,173,0.0,0.0,94,0.00,,---,0.24,VWS V14.00,2013-05-22 08:47:00,
2013-05-22 04:49:00,50.4,48.7,29.87,South,173,0.0,0.0,94,0.00,,---,0.24,VWS V14.00,2013-05-22 08:49:00,
2013-05-22 04:50:00,50.4,48.7,29.87,South,173,0.0,0.0,94,0.00,,---,0.24,VWS V14.00,2013-05-22 08:50:00,
2013-05-22 04:51:00,50.4,48.7,29.87,South,173,0.0,0.0,94,0.00,,---,0.24,VWS V14.00,2013-05-22 08:51:00,
2013-05-22 04:52:00,50.4,48.7,29.87,South,173,0.0,0.0,94,0.00,,---,0.24,VWS V14.00,2013-05-22 08:52:00,
2013-05-22 04:54:00,50.4,48.7,29.87,South,173,0.0,0.0,94,0.00,,---,0.24,VWS V14.00,2013-05-22 08:54:00,
2013-05-22 04:55:00,50.4,48.7,29.87,South,173,0.0,0.0,94,0.00,,---,0.24,VWS V14.00,2013-05-22 08:55:00,
2013-05-22 04:56:00,50.4,48.7,29.87,South,173,0.0,0.0,94,0.00,,---,0.24,VWS V14.00,2013-05-22 08:56:00,
2013-05-22 04:57:00,50.4,49.0,29.87,South,173,0.0,0.0,95,0.00,,---,0.24,VWS V14.00,2013-05-22 08:57:00,
2013-05-22 04:59:00,50.4,48.7,29.88,South,173,0.0,0.0,94,0.00,,---,0.24,VWS V14.00,2013-05-22 08:59:00,
2013-05-22 05:00:00,50.4,48.7,29.88,South,173,0.0,0.0,94,0.00,,---,0.24,VWS V14.00,2013-05-22 09:00:00,
2013-05-22 05:01:00,50.4,48.7,29.88,South,173,0.0,0.0,94,0.00,,---,0.24,VWS V14.00,2013-05-22 09:01:00,
2013-05-22 05:03:00,50.4,48.7,29.88,South,173,0.0,0.0,94,0.00,,---,0.24,VWS V14.00,2013-05-22 09:03:00,
2013-05-22 05:04:00,50.4,48.7,29.88,South,173,0.0,0.0,94,0.00,,---,0.24,VWS V14.00,2013-05-22 09:04:00,
2013-05-22 05:05:00,50.4,48.7,29.88,South,173,0.0,0.0,94,0.00,,---,0.24,VWS V14.00,2013-05-22 09:05:00,
2013-05-22 05:06:00,50.4,49.0,29.88,South,173,0.0,0.0,95,0.00,,---,0.24,VWS V14.00,2013-05-22 09:06:00,
2013-05-22 05:07:00,50.4,49.0,29.88,South,173,0.0,0.0,95,0.00,,---,0.24,VWS V14.00,2013-05-22 09:07:00,
2013-05-22 05:08:00,50.4,49.0,29.88,South,173,0.0,0.0,95,0.00,,---,0.24,VWS V14.00,2013-05-22 09:08:00,
2013-05-22 05:09:00,50.4,49.0,29.88,South,173,0.0,0.0,95,0.00,,---,0.24,VWS V14.00,2013-05-22 09:09:00,
2013-05-22 05:10:00,50.4,49.0,29.88,South,173,0.0,0.0,95,0.00,,---,0.24,VWS V14.00,2013-05-22 09:10:00,
2013-05-22 05:11:00,50.4,49.0,29.88,South,173,0.0,0.0,95,0.00,,---,0.24,VWS V14.00,2013-05-22 09:11:00,
2013-05-22 05:12:00,50.4,49.0,29.88,South,173,0.0,0.0,95,0.00,,---,0.24,VWS V14.00,2013-05-22 09:12:00,
2013-05-22 05:13:00,50.4,49.0,29.87,South,173,0.0,0.0,95,0.00,,---,0.24,VWS V14.00,2013-05-22 09:13:00,
2013-05-22 05:14:00,50.4,49.0,29.87,South,173,0.0,0.0,95,0.00,,---,0.24,VWS V14.00,2013-05-22 09:14:00,
2013-05-22 05:15:00,50.4,49.0,29.87,South,173,0.0,0.0,95,0.00,,---,0.24,VWS V14.00,2013-05-22 09:15:00,
2013-05-22 05:16:00,50.4,49.0,29.87,South,173,0.0,0.0,95,0.00,,---,0.24,VWS V14.00,2013-05-22 09:16:00,
2013-05-22 05:17:00,50.4,49.0,29.87,South,173,0.0,0.0,95,0.00,,---,0.24,VWS V14.00,2013-05-22 09:17:00,
2013-05-22 05:18:00,50.4,49.0,29.87,South,173,0.0,0.0,95,0.00,,---,0.24,VWS V14.00,2013-05-22 09:18:00,
2013-05-22 05:19:00,50.5,49.1,29.87,South,173,0.0,0.0,95,0.00,,---,0.24,VWS V14.00,2013-05-22 09:19:00,
2013-05-22 05:20:00,50.5,49.1,29.87,South,173,0.0,0.0,95,0.00,,---,0.24,VWS V14.00,2013-05-22 09:20:00,
2013-05-22 05:21:00,50.5,49.1,29.87,South,173,0.0,0.0,95,0.00,,---,0.24,VWS V14.00,2013-05-22 09:21:00,
2013-05-22 05:22:00,50.5,49.1,29.87,South,173,0.0,0.0,95,0.00,,---,0.24,VWS V14.00,2013-05-22 09:22:00,
2013-05-22 05:23:00,50.5,49.1,29.87,South,173,0.0,0.0,95,0.00,,---,0.24,VWS V14.00,2013-05-22 09:23:00,
2013-05-22 05:25:00,50.5,49.1,29.87,South,173,0.0,0.0,95,0.00,,---,0.24,VWS V14.00,2013-05-22 09:25:00,
2013-05-22 05:27:00,50.5,49.1,29.87,South,173,0.0,0.0,95,0.00,,---,0.24,VWS V14.00,2013-05-22 09:27:00,
2013-05-22 05:28:00,50.5,49.1,29.86,South,173,0.0,0.0,95,0.00,,---,0.24,VWS V14.00,2013-05-22 09:28:00,
2013-05-22 05:30:00,50.5,49.1,29.86,South,173,0.0,0.0,95,0.00,,---,0.24,VWS V14.00,2013-05-22 09:30:00,
2013-05-22 05:32:00,50.7,49.3,29.86,South,173,0.0,1.0,95,0.00,,---,0.24,VWS V14.00,2013-05-22 09:32:00,
2013-05-22 05:33:00,50.7,49.3,29.86,South,173,0.0,1.0,95,0.00,,---,0.24,VWS V14.00,2013-05-22 09:33:00,
2013-05-22 05:35:00,50.7,49.3,29.86,South,173,0.0,1.0,95,0.00,,---,0.25,VWS V14.00,2013-05-22 09:35:00,
2013-05-22 05:37:00,50.7,49.3,29.86,South,172,0.0,1.0,95,0.00,,---,0.25,VWS V14.00,2013-05-22 09:37:00,
2013-05-22 05:38:00,50.8,49.4,29.86,South,172,0.0,1.0,95,0.00,,---,0.25,VWS V14.00,2013-05-22 09:38:00,
2013-05-22 05:39:00,50.8,49.4,29.86,South,172,0.0,1.0,95,0.00,,---,0.25,VWS V14.00,2013-05-22 09:39:00,
2013-05-22 05:40:00,50.8,49.4,29.86,South,172,0.0,1.0,95,0.00,,---,0.25,VWS V14.00,2013-05-22 09:40:00,
2013-05-22 05:42:00,50.8,49.4,29.86,South,172,0.0,1.0,95,0.00,,---,0.25,VWS V14.00,2013-05-22 09:42:00,
2013-05-22 05:43:00,50.8,49.4,29.86,South,172,0.0,1.0,95,0.00,,---,0.25,VWS V14.00,2013-05-22 09:43:00,
2013-05-22 05:44:00,50.8,49.4,29.85,South,176,0.0,0.0,95,0.00,,---,0.25,VWS V14.00,2013-05-22 09:44:00,
2013-05-22 05:45:00,50.8,49.4,29.85,South,176,1.0,3.0,95,0.00,,---,0.25,VWS V14.00,2013-05-22 09:45:00,
2013-05-22 05:46:00,50.8,49.4,29.85,South,176,0.0,3.0,95,0.00,,---,0.25,VWS V14.00,2013-05-22 09:46:00,
2013-05-22 05:47:00,50.8,49.4,29.85,South,176,1.0,3.0,95,0.00,,---,0.25,VWS V14.00,2013-05-22 09:47:00,
2013-05-22 05:48:00,50.8,49.4,29.85,South,176,1.0,3.0,95,0.00,,---,0.25,VWS V14.00,2013-05-22 09:48:00,
2013-05-22 05:50:00,50.8,49.4,29.85,South,179,0.0,3.0,95,0.00,,---,0.25,VWS V14.00,2013-05-22 09:50:00,
2013-05-22 05:51:00,50.8,49.4,29.85,South,179,0.0,3.0,95,0.00,,---,0.25,VWS V14.00,2013-05-22 09:51:00,
2013-05-22 05:52:00,50.8,49.4,29.85,South,179,1.0,3.0,95,0.00,,---,0.25,VWS V14.00,2013-05-22 09:52:00,
2013-05-22 05:53:00,50.8,49.4,29.85,South,179,0.0,3.0,95,0.00,,---,0.25,VWS V14.00,2013-05-22 09:53:00,
2013-05-22 05:55:00,51.0,49.6,29.85,South,179,2.0,3.0,95,0.00,,---,0.25,VWS V14.00,2013-05-22 09:55:00,
2013-05-22 05:56:00,51.0,49.6,29.85,South,179,0.0,3.0,95,0.00,,---,0.25,VWS V14.00,2013-05-22 09:56:00,
2013-05-22 05:57:00,51.0,49.6,29.85,SSW,209,2.0,4.0,95,0.00,,---,0.25,VWS V14.00,2013-05-22 09:57:00,
2013-05-22 05:58:00,51.0,49.6,29.84,SSW,209,0.0,4.0,95,0.00,,---,0.25,VWS V14.00,2013-05-22 09:58:00,
2013-05-22 06:00:00,51.0,49.6,29.84,SSE,162,0.0,2.0,95,0.00,,---,0.25,VWS V14.00,2013-05-22 10:00:00,
2013-05-22 06:01:00,51.0,49.6,29.84,SW,214,3.0,3.0,95,0.00,,---,0.25,VWS V14.00,2013-05-22 10:01:00,
2013-05-22 06:02:00,51.0,49.6,29.84,SW,214,0.0,3.0,95,0.00,,---,0.25,VWS V14.00,2013-05-22 10:02:00,
2013-05-22 06:03:00,51.0,49.6,29.84,SW,214,0.0,3.0,95,0.00,,---,0.25,VWS V14.00,2013-05-22 10:03:00,
2013-05-22 06:05:00,51.0,49.6,29.84,SW,219,0.0,3.0,95,0.00,,---,0.25,VWS V14.00,2013-05-22 10:05:00,
2013-05-22 06:06:00,51.0,49.6,29.84,SW,219,2.0,3.0,95,0.00,,---,0.25,VWS V14.00,2013-05-22 10:06:00,
2013-05-22 06:08:00,51.0,49.6,29.84,SW,219,3.0,3.0,95,0.00,,---,0.25,VWS V14.00,2013-05-22 10:08:00,
2013-05-22 06:10:00,51.1,49.7,29.84,SE,146,1.0,3.0,95,0.00,,---,0.25,VWS V14.00,2013-05-22 10:10:00,
2013-05-22 06:11:00,51.1,49.7,29.84,SSE,148,0.0,3.0,95,0.00,,---,0.25,VWS V14.00,2013-05-22 10:11:00,
2013-05-22 06:13:00,51.1,49.7,29.84,SSE,148,1.0,3.0,95,0.00,,---,0.25,VWS V14.00,2013-05-22 10:13:00,
2013-05-22 06:14:00,51.3,49.9,29.84,SSE,148,0.0,3.0,95,0.00,,---,0.25,VWS V14.00,2013-05-22 10:14:00,
2013-05-22 06:15:00,51.3,49.9,29.84,SSE,149,2.0,2.0,95,0.00,,---,0.25,VWS V14.00,2013-05-22 10:15:00,
2013-05-22 06:16:00,51.3,49.9,29.84,SSE,149,0.0,2.0,95,0.00,,---,0.25,VWS V14.00,2013-05-22 10:16:00,
2013-05-22 06:18:00,51.3,49.9,29.84,SW,214,0.0,3.0,95,0.00,,---,0.25,VWS V14.00,2013-05-22 10:18:00,
2013-05-22 06:19:00,51.3,49.9,29.84,WSW,240,0.0,3.0,95,0.00,,---,0.25,VWS V14.00,2013-05-22 10:19:00,
2013-05-22 06:20:00,51.3,49.9,29.84,WSW,240,0.0,3.0,95,0.00,,---,0.25,VWS V14.00,2013-05-22 10:20:00,
2013-05-22 06:21:00,51.3,49.9,29.84,WSW,240,0.0,3.0,95,0.00,,---,0.25,VWS V14.00,2013-05-22 10:21:00,
2013-05-22 06:22:00,51.3,49.9,29.84,WSW,240,0.0,3.0,95,0.00,,---,0.25,VWS V14.00,2013-05-22 10:22:00,
2013-05-22 06:23:00,51.3,49.9,29.84,WSW,240,0.0,3.0,95,0.00,,---,0.25,VWS V14.00,2013-05-22 10:23:00,
2013-05-22 06:24:00,51.3,49.9,29.84,WSW,240,0.0,3.0,95,0.00,,---,0.25,VWS V14.00,2013-05-22 10:24:00,
2013-05-22 06:25:00,51.4,50.0,29.84,WSW,240,0.0,3.0,95,0.00,,---,0.25,VWS V14.00,2013-05-22 10:25:00,
2013-05-22 06:27:00,51.4,50.0,29.84,WSW,240,0.0,3.0,95,0.00,,---,0.25,VWS V14.00,2013-05-22 10:27:00,
2013-05-22 06:28:00,51.4,50.0,29.84,WSW,240,0.0,3.0,95,0.00,,---,0.25,VWS V14.00,2013-05-22 10:28:00,
2013-05-22 06:29:00,51.4,50.0,29.84,WSW,257,1.0,3.0,95,0.00,,---,0.25,VWS V14.00,2013-05-22 10:29:00,
2013-05-22 06:30:00,51.4,50.0,29.84,SW,216,2.0,4.0,95,0.00,,---,0.25,VWS V14.00,2013-05-22 10:30:00,
2013-05-22 06:32:00,51.4,50.0,29.84,SW,236,1.0,4.0,95,0.00,,---,0.25,VWS V14.00,2013-05-22 10:32:00,
2013-05-22 06:33:00,51.4,50.0,29.84,SW,236,0.0,4.0,95,0.00,,---,0.25,VWS V14.00,2013-05-22 10:33:00,
2013-05-22 06:34:00,51.4,50.0,29.84,SW,236,0.0,4.0,95,0.00,,---,0.25,VWS V14.00,2013-05-22 10:34:00,
2013-05-22 06:35:00,51.4,50.0,29.84,WSW,250,1.0,4.0,95,0.00,,---,0.25,VWS V14.00,2013-05-22 10:35:00,
2013-05-22 06:37:00,51.4,50.0,29.84,WSW,248,0.0,4.0,95,0.00,,---,0.25,VWS V14.00,2013-05-22 10:37:00,
2013-05-22 06:38:00,51.4,50.0,29.84,WSW,248,0.0,4.0,95,0.00,,---,0.25,VWS V14.00,2013-05-22 10:38:00,
2013-05-22 06:39:00,51.4,50.0,29.84,WSW,248,2.0,4.0,95,0.00,,---,0.25,VWS V14.00,2013-05-22 10:39:00,
2013-05-22 06:41:00,51.4,50.0,29.84,WSW,248,1.0,4.0,95,0.00,,---,0.25,VWS V14.00,2013-05-22 10:41:00,
2013-05-22 06:42:00,51.4,50.0,29.84,WSW,248,0.0,4.0,95,0.00,,---,0.25,VWS V14.00,2013-05-22 10:42:00,
2013-05-22 06:43:00,51.4,50.0,29.84,WSW,248,1.0,4.0,95,0.00,,---,0.25,VWS V14.00,2013-05-22 10:43:00,
2013-05-22 06:44:00,51.4,50.0,29.86,WSW,248,0.0,0.0,95,0.00,,---,0.25,VWS V14.00,2013-05-22 10:44:00,
2013-05-22 06:45:00,51.4,50.0,29.86,WSW,248,0.0,4.0,95,0.00,,---,0.25,VWS V14.00,2013-05-22 10:45:00,
2013-05-22 06:46:00,51.6,50.2,29.86,WSW,248,0.0,0.0,95,0.00,,---,0.25,VWS V14.00,2013-05-22 10:46:00,
2013-05-22 06:47:00,51.6,50.2,29.86,WSW,248,0.0,1.0,95,0.00,,---,0.25,VWS V14.00,2013-05-22 10:47:00,
2013-05-22 06:48:00,51.6,50.2,29.86,WSW,248,0.0,1.0,95,0.00,,---,0.25,VWS V14.00,2013-05-22 10:48:00,
2013-05-22 06:49:00,51.6,50.2,29.86,WSW,248,0.0,1.0,95,0.00,,---,0.25,VWS V14.00,2013-05-22 10:49:00,
2013-05-22 06:51:00,51.6,50.2,29.86,WSW,248,0.0,1.0,95,0.00,,---,0.25,VWS V14.00,2013-05-22 10:51:00,
2013-05-22 06:52:00,51.7,50.3,29.86,WSW,248,0.0,1.0,95,0.00,,---,0.25,VWS V14.00,2013-05-22 10:52:00,
2013-05-22 06:53:00,51.7,50.3,29.86,WSW,248,0.0,1.0,95,0.00,,---,0.25,VWS V14.00,2013-05-22 10:53:00,
2013-05-22 06:55:00,51.7,50.3,29.86,WSW,248,0.0,1.0,95,0.00,,---,0.25,VWS V14.00,2013-05-22 10:55:00,
2013-05-22 06:56:00,51.7,50.3,29.86,WSW,248,0.0,1.0,95,0.00,,---,0.25,VWS V14.00,2013-05-22 10:56:00,
2013-05-22 06:57:00,51.9,50.5,29.86,WSW,248,0.0,1.0,95,0.00,,---,0.25,VWS V14.00,2013-05-22 10:57:00,
2013-05-22 06:58:00,51.9,50.5,29.88,WSW,248,0.0,1.0,95,0.00,,---,0.25,VWS V14.00,2013-05-22 10:58:00,
2013-05-22 07:00:00,51.9,50.5,29.88,WSW,248,0.0,0.0,95,0.00,,---,0.25,VWS V14.00,2013-05-22 11:00:00,
2013-05-22 07:01:00,51.9,50.5,29.88,WSW,248,0.0,0.0,95,0.00,,---,0.25,VWS V14.00,2013-05-22 11:01:00,
2013-05-22 07:03:00,51.9,50.5,29.88,WSW,248,0.0,0.0,95,0.00,,---,0.25,VWS V14.00,2013-05-22 11:03:00,
2013-05-22 07:05:00,52.0,50.6,29.88,WSW,248,0.0,0.0,95,0.00,,---,0.25,VWS V14.00,2013-05-22 11:05:00,
2013-05-22 07:06:00,52.0,50.6,29.88,WSW,248,0.0,0.0,95,0.00,,---,0.25,VWS V14.00,2013-05-22 11:06:00,
2013-05-22 07:08:00,52.0,50.6,29.88,WSW,248,0.0,0.0,95,0.00,,---,0.25,VWS V14.00,2013-05-22 11:08:00,
2013-05-22 07:10:00,52.2,50.8,29.88,WSW,248,0.0,0.0,95,0.00,,---,0.25,VWS V14.00,2013-05-22 11:10:00,
2013-05-22 07:11:00,52.2,50.8,29.88,WSW,248,0.0,0.0,95,0.00,,---,0.25,VWS V14.00,2013-05-22 11:11:00,
2013-05-22 07:13:00,52.2,50.8,29.88,WSW,248,0.0,0.0,95,0.00,,---,0.25,VWS V14.00,2013-05-22 11:13:00,
2013-05-22 07:14:00,52.3,50.9,29.86,WSW,248,0.0,0.0,95,0.00,,---,0.25,VWS V14.00,2013-05-22 11:14:00,
2013-05-22 07:15:00,52.3,50.9,29.86,WSW,248,0.0,0.0,95,0.00,,---,0.25,VWS V14.00,2013-05-22 11:15:00,
2013-05-22 07:16:00,52.3,50.9,29.86,WSW,248,0.0,0.0,95,0.00,,---,0.25,VWS V14.00,2013-05-22 11:16:00,
2013-05-22 07:18:00,52.3,50.9,29.86,WSW,248,0.0,0.0,95,0.00,,---,0.25,VWS V14.00,2013-05-22 11:18:00,
2013-05-22 07:19:00,52.5,51.1,29.86,WSW,248,0.0,0.0,95,0.00,,---,0.25,VWS V14.00,2013-05-22 11:19:00,
2013-05-22 07:21:00,52.5,51.1,29.86,WSW,248,0.0,0.0,95,0.00,,---,0.25,VWS V14.00,2013-05-22 11:21:00,
2013-05-22 07:22:00,52.5,51.1,29.86,WSW,248,0.0,0.0,95,0.00,,---,0.25,VWS V14.00,2013-05-22 11:22:00,
2013-05-22 07:23:00,52.5,51.1,29.86,WSW,248,0.0,0.0,95,0.00,,---,0.25,VWS V14.00,2013-05-22 11:23:00,
2013-05-22 07:24:00,52.5,51.1,29.86,WSW,248,0.0,0.0,95,0.00,,---,0.25,VWS V14.00,2013-05-22 11:24:00,
2013-05-22 07:26:00,52.3,50.9,29.86,WSW,248,0.0,0.0,95,0.00,,---,0.25,VWS V14.00,2013-05-22 11:26:00,
2013-05-22 07:27:00,52.3,50.9,29.86,WSW,248,0.0,0.0,95,0.00,,---,0.25,VWS V14.00,2013-05-22 11:27:00,
2013-05-22 07:28:00,52.3,50.9,29.86,WSW,248,0.0,0.0,95,0.00,,---,0.25,VWS V14.00,2013-05-22 11:28:00,
2013-05-22 07:29:00,52.3,50.9,29.86,WSW,248,0.0,0.0,95,0.00,,---,0.25,VWS V14.00,2013-05-22 11:29:00,
2013-05-22 07:30:00,52.3,50.9,29.86,WSW,248,0.0,0.0,95,0.00,,---,0.25,VWS V14.00,2013-05-22 11:30:00,
2013-05-22 07:31:00,52.3,50.9,29.86,WSW,248,0.0,0.0,95,0.00,,---,0.25,VWS V14.00,2013-05-22 11:31:00,
2013-05-22 07:33:00,52.3,50.9,29.86,WSW,248,0.0,0.0,95,0.00,,---,0.25,VWS V14.00,2013-05-22 11:33:00,
2013-05-22 07:34:00,52.3,50.9,29.86,WSW,248,0.0,0.0,95,0.00,,---,0.25,VWS V14.00,2013-05-22 11:34:00,
2013-05-22 07:36:00,52.3,50.9,29.86,WSW,248,0.0,0.0,95,0.00,,---,0.25,VWS V14.00,2013-05-22 11:36:00,
2013-05-22 07:38:00,52.3,50.9,29.86,WSW,248,0.0,0.0,95,0.00,,---,0.25,VWS V14.00,2013-05-22 11:38:00,
2013-05-22 07:39:00,52.3,50.9,29.86,WSW,248,0.0,0.0,95,0.00,,---,0.25,VWS V14.00,2013-05-22 11:39:00,
2013-05-22 07:41:00,52.3,50.9,29.86,WSW,248,0.0,0.0,95,0.00,,---,0.25,VWS V14.00,2013-05-22 11:41:00,
2013-05-22 07:43:00,52.3,50.9,29.85,WSW,248,0.0,0.0,95,0.00,,---,0.25,VWS V14.00,2013-05-22 11:43:00,
2013-05-22 07:44:00,52.3,50.9,29.85,WSW,248,0.0,0.0,95,0.00,,---,0.25,VWS V14.00,2013-05-22 11:44:00,
2013-05-22 07:45:00,52.3,50.9,29.85,WSW,248,0.0,0.0,95,0.00,,---,0.25,VWS V14.00,2013-05-22 11:45:00,
2013-05-22 07:46:00,52.5,51.1,29.85,WSW,248,0.0,0.0,95,0.00,,---,0.25,VWS V14.00,2013-05-22 11:46:00,
2013-05-22 07:48:00,52.5,51.1,29.85,WSW,248,0.0,0.0,95,0.00,,---,0.25,VWS V14.00,2013-05-22 11:48:00,
2013-05-22 07:50:00,52.6,51.2,29.85,WSW,248,0.0,0.0,95,0.00,,---,0.25,VWS V14.00,2013-05-22 11:50:00,
2013-05-22 07:51:00,52.6,51.2,29.85,WSW,248,0.0,0.0,95,0.00,,---,0.25,VWS V14.00,2013-05-22 11:51:00,
2013-05-22 07:53:00,52.6,51.2,29.85,WSW,248,0.0,0.0,95,0.00,,---,0.25,VWS V14.00,2013-05-22 11:53:00,
2013-05-22 07:55:00,52.6,51.2,29.85,WSW,248,0.0,0.0,95,0.00,,---,0.25,VWS V14.00,2013-05-22 11:55:00,
2013-05-22 07:56:00,52.8,51.4,29.85,WSW,248,0.0,0.0,95,0.00,,---,0.25,VWS V14.00,2013-05-22 11:56:00,
2013-05-22 07:58:00,52.8,51.4,29.86,WSW,248,0.0,0.0,95,0.00,,---,0.25,VWS V14.00,2013-05-22 11:58:00,
2013-05-22 08:00:00,52.9,51.5,29.86,WSW,248,0.0,0.0,95,0.00,,---,0.25,VWS V14.00,2013-05-22 12:00:00,
2013-05-22 08:01:00,52.9,51.5,29.86,WSW,248,0.0,0.0,95,0.00,,---,0.25,VWS V14.00,2013-05-22 12:01:00,
2013-05-22 08:03:00,52.9,51.5,29.86,WSW,248,0.0,0.0,95,0.00,,---,0.25,VWS V14.00,2013-05-22 12:03:00,
2013-05-22 08:04:00,52.9,51.5,29.86,WSW,248,0.0,0.0,95,0.00,,---,0.25,VWS V14.00,2013-05-22 12:04:00,
2013-05-22 08:05:00,52.9,51.5,29.86,WSW,248,0.0,1.0,95,0.00,,---,0.25,VWS V14.00,2013-05-22 12:05:00,
2013-05-22 08:06:00,52.9,51.5,29.86,WSW,248,0.0,1.0,95,0.00,,---,0.25,VWS V14.00,2013-05-22 12:06:00,
2013-05-22 08:08:00,52.9,51.5,29.86,WSW,248,0.0,1.0,95,0.00,,---,0.25,VWS V14.00,2013-05-22 12:08:00,
2013-05-22 08:09:00,52.9,51.5,29.86,WSW,248,0.0,1.0,95,0.00,,---,0.25,VWS V14.00,2013-05-22 12:09:00,
2013-05-22 08:10:00,52.9,51.5,29.86,WSW,248,0.0,1.0,95,0.00,,---,0.25,VWS V14.00,2013-05-22 12:10:00,
2013-05-22 08:11:00,52.9,51.5,29.86,WSW,248,0.0,1.0,95,0.00,,---,0.25,VWS V14.00,2013-05-22 12:11:00,
2013-05-22 08:13:00,53.1,51.7,29.87,WSW,248,0.0,1.0,95,0.00,,---,0.25,VWS V14.00,2013-05-22 12:13:00,
2013-05-22 08:14:00,53.1,51.7,29.87,WSW,248,0.0,0.0,95,0.00,,---,0.25,VWS V14.00,2013-05-22 12:14:00,
2013-05-22 08:15:00,53.1,51.7,29.87,WSW,248,0.0,0.0,95,0.00,,---,0.25,VWS V14.00,2013-05-22 12:15:00,
2013-05-22 08:16:00,53.1,51.7,29.87,WSW,248,0.0,0.0,95,0.00,,---,0.25,VWS V14.00,2013-05-22 12:16:00,
2013-05-22 08:17:00,53.1,51.7,29.87,WSW,248,0.0,0.0,95,0.00,,---,0.25,VWS V14.00,2013-05-22 12:17:00,
2013-05-22 08:18:00,53.2,51.8,29.87,WSW,248,0.0,0.0,95,0.00,,---,0.25,VWS V14.00,2013-05-22 12:18:00,
2013-05-22 08:19:00,53.2,51.8,29.87,WSW,248,0.0,0.0,95,0.00,,---,0.25,VWS V14.00,2013-05-22 12:19:00,
2013-05-22 08:20:00,53.2,51.8,29.87,WSW,248,0.0,0.0,95,0.00,,---,0.25,VWS V14.00,2013-05-22 12:20:00,
2013-05-22 08:21:00,53.2,51.8,29.87,WSW,248,0.0,0.0,95,0.00,,---,0.25,VWS V14.00,2013-05-22 12:21:00,
2013-05-22 08:22:00,53.2,51.8,29.87,WSW,248,0.0,0.0,95,0.00,,---,0.25,VWS V14.00,2013-05-22 12:22:00,
2013-05-22 08:24:00,53.2,51.8,29.87,WSW,248,0.0,1.0,95,0.00,,---,0.25,VWS V14.00,2013-05-22 12:24:00,
2013-05-22 08:25:00,53.2,51.8,29.87,WSW,248,0.0,1.0,95,0.00,,---,0.25,VWS V14.00,2013-05-22 12:25:00,
2013-05-22 08:26:00,53.2,51.8,29.87,WSW,248,0.0,1.0,95,0.00,,---,0.25,VWS V14.00,2013-05-22 12:26:00,
2013-05-22 08:27:00,53.2,51.8,29.87,WSW,248,0.0,1.0,95,0.00,,---,0.25,VWS V14.00,2013-05-22 12:27:00,
2013-05-22 08:29:00,53.3,51.9,29.86,WSW,248,0.0,0.0,95,0.00,,---,0.25,VWS V14.00,2013-05-22 12:29:00,
2013-05-22 08:30:00,53.3,51.9,29.86,WSW,248,0.0,1.0,95,0.00,,---,0.25,VWS V14.00,2013-05-22 12:30:00,
2013-05-22 08:31:00,53.3,51.9,29.86,WSW,248,0.0,0.0,95,0.00,,---,0.25,VWS V14.00,2013-05-22 12:31:00,
2013-05-22 08:32:00,53.3,51.9,29.86,WSW,248,0.0,1.0,95,0.00,,---,0.25,VWS V14.00,2013-05-22 12:32:00,
2013-05-22 08:34:00,53.3,51.9,29.86,WSW,248,0.0,1.0,95,0.00,,---,0.25,VWS V14.00,2013-05-22 12:34:00,
2013-05-22 08:35:00,53.3,51.9,29.86,WSW,248,0.0,1.0,95,0.00,,---,0.25,VWS V14.00,2013-05-22 12:35:00,
2013-05-22 08:36:00,53.3,51.9,29.86,WSW,248,0.0,1.0,95,0.00,,---,0.25,VWS V14.00,2013-05-22 12:36:00,
2013-05-22 08:37:00,53.3,51.9,29.86,WSW,248,0.0,1.0,95,0.00,,---,0.25,VWS V14.00,2013-05-22 12:37:00,
2013-05-22 08:39:00,53.5,52.1,29.86,WSW,248,0.0,1.0,95,0.00,,---,0.25,VWS V14.00,2013-05-22 12:39:00,
2013-05-22 08:40:00,53.5,52.1,29.86,WSW,248,0.0,2.0,95,0.00,,---,0.25,VWS V14.00,2013-05-22 12:40:00,
2013-05-22 08:41:00,53.6,52.2,29.86,WSW,248,0.0,2.0,95,0.00,,---,0.25,VWS V14.00,2013-05-22 12:41:00,
2013-05-22 08:42:00,53.6,52.2,29.86,WSW,248,0.0,2.0,95,0.00,,---,0.25,VWS V14.00,2013-05-22 12:42:00,
2013-05-22 08:45:00,53.8,52.4,29.87,WSW,248,0.0,1.0,95,0.00,,---,0.25,VWS V14.00,2013-05-22 12:45:00,
2013-05-22 08:46:00,53.9,52.5,29.87,WSW,248,0.0,1.0,95,0.00,,---,0.25,VWS V14.00,2013-05-22 12:46:00,
2013-05-22 08:47:00,53.9,52.5,29.87,WSW,248,0.0,1.0,95,0.00,,---,0.25,VWS V14.00,2013-05-22 12:47:00,
2013-05-22 08:50:00,53.9,52.5,29.87,WSW,248,0.0,1.0,95,0.00,,---,0.25,VWS V14.00,2013-05-22 12:50:00,
2013-05-22 08:51:00,53.9,52.5,29.87,WSW,248,0.0,1.0,95,0.00,,---,0.25,VWS V14.00,2013-05-22 12:51:00,
2013-05-22 08:52:00,53.9,52.5,29.87,WSW,248,0.0,1.0,95,0.00,,---,0.25,VWS V14.00,2013-05-22 12:52:00,
2013-05-22 08:55:00,53.6,52.2,29.87,WSW,248,0.0,1.0,95,0.00,,---,0.25,VWS V14.00,2013-05-22 12:55:00,
2013-05-22 08:56:00,53.6,52.2,29.87,WSW,248,0.0,1.0,95,0.00,,---,0.25,VWS V14.00,2013-05-22 12:56:00,
2013-05-22 08:57:00,53.6,52.2,29.87,WSW,248,0.0,1.0,95,0.00,,---,0.25,VWS V14.00,2013-05-22 12:57:00,
2013-05-22 08:58:00,53.6,52.2,29.87,WSW,248,0.0,1.0,95,0.00,,---,0.25,VWS V14.00,2013-05-22 12:58:00,
2013-05-22 09:00:00,53.6,52.2,29.86,WSW,248,0.0,0.0,95,0.00,,---,0.25,VWS V14.00,2013-05-22 13:00:00,
2013-05-22 09:01:00,53.6,52.2,29.86,WSW,248,0.0,0.0,95,0.00,,---,0.25,VWS V14.00,2013-05-22 13:01:00,
2013-05-22 09:02:00,53.6,52.2,29.86,WSW,248,0.0,0.0,95,0.00,,---,0.25,VWS V14.00,2013-05-22 13:02:00,
2013-05-22 09:03:00,53.6,52.2,29.86,WSW,248,0.0,0.0,95,0.00,,---,0.25,VWS V14.00,2013-05-22 13:03:00,
2013-05-22 09:05:00,53.6,52.2,29.86,WSW,248,0.0,0.0,95,0.00,,---,0.25,VWS V14.00,2013-05-22 13:05:00,
2013-05-22 09:06:00,53.8,52.4,29.86,WSW,248,0.0,0.0,95,0.00,,---,0.25,VWS V14.00,2013-05-22 13:06:00,
2013-05-22 09:07:00,53.8,52.4,29.86,WSW,248,0.0,0.0,95,0.00,,---,0.25,VWS V14.00,2013-05-22 13:07:00,
2013-05-22 09:08:00,53.8,52.4,29.86,WSW,248,0.0,0.0,95,0.00,,---,0.25,VWS V14.00,2013-05-22 13:08:00,
2013-05-22 09:10:00,53.8,52.4,29.86,WSW,248,0.0,0.0,95,0.00,,---,0.25,VWS V14.00,2013-05-22 13:10:00,
2013-05-22 09:11:00,53.8,52.4,29.86,WSW,248,0.0,0.0,95,0.00,,---,0.25,VWS V14.00,2013-05-22 13:11:00,
2013-05-22 09:12:00,53.8,52.4,29.86,WSW,248,0.0,0.0,95,0.00,,---,0.25,VWS V14.00,2013-05-22 13:12:00,
2013-05-22 09:13:00,53.9,52.5,29.88,WSW,248,0.0,0.0,95,0.00,,---,0.25,VWS V14.00,2013-05-22 13:13:00,
2013-05-22 09:15:00,53.9,52.5,29.88,WSW,248,0.0,0.0,95,0.00,,---,0.25,VWS V14.00,2013-05-22 13:15:00,
2013-05-22 09:16:00,53.9,52.5,29.88,WSW,248,0.0,0.0,95,0.00,,---,0.25,VWS V14.00,2013-05-22 13:16:00,
2013-05-22 09:17:00,53.9,52.5,29.88,WSW,248,0.0,0.0,95,0.00,,---,0.25,VWS V14.00,2013-05-22 13:17:00,
2013-05-22 09:18:00,54.1,52.7,29.88,WSW,248,0.0,0.0,95,0.00,,---,0.25,VWS V14.00,2013-05-22 13:18:00,
2013-05-22 09:20:00,54.1,52.7,29.88,WSW,248,0.0,0.0,95,0.00,,---,0.25,VWS V14.00,2013-05-22 13:20:00,
2013-05-22 09:21:00,54.1,52.7,29.88,WSW,248,0.0,0.0,95,0.00,,---,0.25,VWS V14.00,2013-05-22 13:21:00,
2013-05-22 09:22:00,54.2,52.8,29.88,WSW,248,0.0,0.0,95,0.00,,---,0.25,VWS V14.00,2013-05-22 13:22:00,
2013-05-22 09:23:00,54.2,52.8,29.88,WSW,248,0.0,0.0,95,0.00,,---,0.25,VWS V14.00,2013-05-22 13:23:00,
2013-05-22 09:25:00,54.4,53.0,29.88,WSW,248,0.0,0.0,95,0.00,,---,0.25,VWS V14.00,2013-05-22 13:25:00,
2013-05-22 09:26:00,54.4,53.0,29.88,WSW,248,0.0,0.0,95,0.00,,---,0.25,VWS V14.00,2013-05-22 13:26:00,
2013-05-22 09:27:00,54.4,53.0,29.88,WSW,248,0.0,1.0,95,0.00,,---,0.25,VWS V14.00,2013-05-22 13:27:00,
2013-05-22 09:28:00,54.4,53.0,29.88,WSW,248,0.0,1.0,95,0.00,,---,0.25,VWS V14.00,2013-05-22 13:28:00,
2013-05-22 09:30:00,54.2,52.5,29.88,WSW,248,0.0,0.0,94,0.00,,---,0.25,VWS V14.00,2013-05-22 13:30:00,
2013-05-22 09:31:00,54.2,52.5,29.88,WSW,248,0.0,0.0,94,0.00,,---,0.25,VWS V14.00,2013-05-22 13:31:00,
2013-05-22 09:32:00,54.2,52.5,29.88,WSW,248,0.0,1.0,94,0.00,,---,0.25,VWS V14.00,2013-05-22 13:32:00,
2013-05-22 09:33:00,54.2,52.5,29.88,WSW,248,0.0,1.0,94,0.00,,---,0.25,VWS V14.00,2013-05-22 13:33:00,
2013-05-22 09:34:00,54.2,52.5,29.88,WSW,248,0.0,1.0,94,0.00,,---,0.25,VWS V14.00,2013-05-22 13:34:00,
2013-05-22 09:35:00,54.2,52.5,29.88,WSW,248,0.0,1.0,94,0.00,,---,0.25,VWS V14.00,2013-05-22 13:35:00,
2013-05-22 09:36:00,54.2,52.5,29.88,WSW,248,0.0,1.0,94,0.00,,---,0.25,VWS V14.00,2013-05-22 13:36:00,
2013-05-22 09:37:00,54.2,52.5,29.88,WSW,248,0.0,1.0,94,0.00,,---,0.25,VWS V14.00,2013-05-22 13:37:00,
2013-05-22 09:38:00,54.2,52.5,29.88,WSW,248,0.0,1.0,94,0.00,,---,0.25,VWS V14.00,2013-05-22 13:38:00,
2013-05-22 09:39:00,54.2,52.5,29.88,WSW,248,0.0,1.0,94,0.00,,---,0.25,VWS V14.00,2013-05-22 13:39:00,
2013-05-22 09:41:00,54.4,52.7,29.88,WSW,248,0.0,1.0,94,0.00,,---,0.25,VWS V14.00,2013-05-22 13:41:00,
2013-05-22 09:43:00,54.4,52.7,29.88,WSW,248,0.0,1.0,94,0.00,,---,0.25,VWS V14.00,2013-05-22 13:43:00,
2013-05-22 09:44:00,54.5,52.8,29.87,WSW,248,0.0,1.0,94,0.00,,---,0.25,VWS V14.00,2013-05-22 13:44:00,
2013-05-22 09:45:00,54.5,52.8,29.87,WSW,248,0.0,1.0,94,0.00,,---,0.25,VWS V14.00,2013-05-22 13:45:00,
2013-05-22 09:46:00,54.7,53.0,29.87,WSW,248,0.0,0.0,94,0.00,,---,0.25,VWS V14.00,2013-05-22 13:46:00,
2013-05-22 09:48:00,54.7,53.0,29.87,WSW,248,0.0,0.0,94,0.00,,---,0.25,VWS V14.00,2013-05-22 13:48:00,
2013-05-22 09:49:00,54.8,53.1,29.87,WSW,248,0.0,0.0,94,0.00,,---,0.25,VWS V14.00,2013-05-22 13:49:00,
2013-05-22 09:51:00,54.8,53.1,29.87,WSW,248,0.0,0.0,94,0.00,,---,0.25,VWS V14.00,2013-05-22 13:51:00,
2013-05-22 09:52:00,54.8,53.1,29.87,WSW,248,0.0,0.0,94,0.00,,---,0.25,VWS V14.00,2013-05-22 13:52:00,
2013-05-22 09:53:00,54.8,53.1,29.87,WSW,248,0.0,0.0,94,0.00,,---,0.25,VWS V14.00,2013-05-22 13:53:00,
2013-05-22 09:54:00,54.8,53.1,29.87,WSW,248,0.0,0.0,94,0.00,,---,0.25,VWS V14.00,2013-05-22 13:54:00,
2013-05-22 09:56:00,55.0,53.3,29.87,WSW,248,0.0,0.0,94,0.00,,---,0.25,VWS V14.00,2013-05-22 13:56:00,
2013-05-22 09:57:00,55.0,53.3,29.87,WSW,248,0.0,0.0,94,0.00,,---,0.25,VWS V14.00,2013-05-22 13:57:00,
2013-05-22 09:58:00,55.0,53.3,29.87,WSW,248,0.0,0.0,94,0.00,,---,0.25,VWS V14.00,2013-05-22 13:58:00,
2013-05-22 09:59:00,55.1,53.4,29.87,WSW,248,0.0,0.0,94,0.00,,---,0.25,VWS V14.00,2013-05-22 13:59:00,
2013-05-22 10:00:00,55.1,53.4,29.87,WSW,248,0.0,0.0,94,0.00,,---,0.25,VWS V14.00,2013-05-22 14:00:00,
2013-05-22 10:01:00,55.4,53.7,29.87,WSW,248,0.0,0.0,94,0.00,,---,0.25,VWS V14.00,2013-05-22 14:01:00,
2013-05-22 10:02:00,55.4,53.7,29.87,WSW,248,0.0,0.0,94,0.00,,---,0.25,VWS V14.00,2013-05-22 14:02:00,
2013-05-22 10:03:00,55.6,53.9,29.87,WSW,248,0.0,0.0,94,0.00,,---,0.25,VWS V14.00,2013-05-22 14:03:00,
2013-05-22 10:04:00,55.6,53.9,29.87,WSW,248,0.0,0.0,94,0.00,,---,0.25,VWS V14.00,2013-05-22 14:04:00,
2013-05-22 10:05:00,55.6,53.9,29.87,WSW,248,0.0,0.0,94,0.00,,---,0.25,VWS V14.00,2013-05-22 14:05:00,
2013-05-22 10:07:00,55.7,54.0,29.87,WSW,248,0.0,1.0,94,0.00,,---,0.25,VWS V14.00,2013-05-22 14:07:00,
2013-05-22 10:08:00,55.7,54.0,29.87,WSW,248,0.0,1.0,94,0.00,,---,0.25,VWS V14.00,2013-05-22 14:08:00,
2013-05-22 10:09:00,55.9,54.2,29.87,WSW,248,0.0,1.0,94,0.00,,---,0.25,VWS V14.00,2013-05-22 14:09:00,
2013-05-22 10:10:00,55.9,54.2,29.87,WSW,248,0.0,1.0,94,0.00,,---,0.25,VWS V14.00,2013-05-22 14:10:00,
2013-05-22 10:12:00,56.2,54.5,29.87,WSW,248,0.0,1.0,94,0.00,,---,0.25,VWS V14.00,2013-05-22 14:12:00,
2013-05-22 10:13:00,56.3,54.6,29.87,WSW,248,0.0,1.0,94,0.00,,---,0.25,VWS V14.00,2013-05-22 14:13:00,
2013-05-22 10:14:00,56.5,54.8,29.87,WSW,248,0.0,0.0,94,0.00,,---,0.25,VWS V14.00,2013-05-22 14:14:00,
2013-05-22 10:15:00,56.5,54.8,29.87,WSW,248,0.0,0.0,94,0.00,,---,0.25,VWS V14.00,2013-05-22 14:15:00,
2013-05-22 10:17:00,56.7,55.0,29.87,WSW,248,0.0,0.0,94,0.00,,---,0.25,VWS V14.00,2013-05-22 14:17:00,
2013-05-22 10:18:00,56.7,55.0,29.87,WSW,248,0.0,0.0,94,0.00,,---,0.25,VWS V14.00,2013-05-22 14:18:00,
2013-05-22 10:19:00,56.9,55.2,29.87,WSW,248,0.0,0.0,94,0.00,,---,0.25,VWS V14.00,2013-05-22 14:19:00,
2013-05-22 10:20:00,56.9,55.2,29.87,WSW,248,0.0,0.0,94,0.00,,---,0.25,VWS V14.00,2013-05-22 14:20:00,
2013-05-22 10:22:00,57.0,55.0,29.87,WSW,248,0.0,2.0,93,0.00,,---,0.25,VWS V14.00,2013-05-22 14:22:00,
2013-05-22 10:23:00,57.0,55.0,29.87,WSW,248,0.0,2.0,93,0.00,,---,0.25,VWS V14.00,2013-05-22 14:23:00,
2013-05-22 10:24:00,57.2,55.2,29.87,WSW,248,0.0,2.0,93,0.00,,---,0.25,VWS V14.00,2013-05-22 14:24:00,
2013-05-22 10:25:00,57.2,55.2,29.87,WSW,248,0.0,2.0,93,0.00,,---,0.25,VWS V14.00,2013-05-22 14:25:00,
2013-05-22 10:27:00,57.2,55.2,29.87,WSW,248,0.0,2.0,93,0.00,,---,0.25,VWS V14.00,2013-05-22 14:27:00,
2013-05-22 10:28:00,57.2,55.2,29.87,WSW,248,0.0,3.0,93,0.00,,---,0.25,VWS V14.00,2013-05-22 14:28:00,
2013-05-22 10:30:00,57.2,55.2,29.88,WSW,248,0.0,0.0,93,0.00,,---,0.25,VWS V14.00,2013-05-22 14:30:00,
2013-05-22 10:32:00,57.3,55.3,29.88,WSW,248,0.0,0.0,93,0.00,,---,0.25,VWS V14.00,2013-05-22 14:32:00,
2013-05-22 10:33:00,57.5,55.5,29.88,WSW,248,0.0,0.0,93,0.00,,---,0.25,VWS V14.00,2013-05-22 14:33:00,
2013-05-22 10:35:00,57.6,55.6,29.88,WSW,248,0.0,1.0,93,0.00,,---,0.25,VWS V14.00,2013-05-22 14:35:00,
2013-05-22 10:37:00,57.6,55.3,29.88,WSW,248,0.0,1.0,92,0.00,,---,0.25,VWS V14.00,2013-05-22 14:37:00,
2013-05-22 10:38:00,57.6,55.3,29.88,WSW,248,0.0,1.0,92,0.00,,---,0.25,VWS V14.00,2013-05-22 14:38:00,
2013-05-22 10:40:00,57.6,55.3,29.88,WSW,248,0.0,1.0,92,0.00,,---,0.25,VWS V14.00,2013-05-22 14:40:00,
2013-05-22 10:43:00,57.6,55.3,29.88,WSW,248,0.0,2.0,92,0.00,,---,0.25,VWS V14.00,2013-05-22 14:43:00,
2013-05-22 10:44:00,57.6,55.0,29.87,WSW,248,0.0,2.0,91,0.00,,---,0.25,VWS V14.00,2013-05-22 14:44:00,
2013-05-22 10:45:00,57.6,55.0,29.87,WSW,248,0.0,1.0,91,0.00,,---,0.25,VWS V14.00,2013-05-22 14:45:00,
2013-05-22 10:48:00,57.8,55.2,29.87,WSW,248,0.0,1.0,91,0.00,,---,0.25,VWS V14.00,2013-05-22 14:48:00,
2013-05-22 10:49:00,57.8,55.2,29.87,WSW,248,0.0,1.0,91,0.00,,---,0.25,VWS V14.00,2013-05-22 14:49:00,
2013-05-22 10:50:00,58.0,55.4,29.87,WSW,248,0.0,1.0,91,0.00,,---,0.25,VWS V14.00,2013-05-22 14:50:00,
2013-05-22 10:53:00,58.1,55.5,29.87,WSW,248,0.0,1.0,91,0.00,,---,0.25,VWS V14.00,2013-05-22 14:53:00,
2013-05-22 10:54:00,58.3,55.4,29.87,WSW,248,2.0,2.0,90,0.00,,---,0.25,VWS V14.00,2013-05-22 14:54:00,
2013-05-22 10:55:00,58.3,55.4,29.87,WSW,248,0.0,2.0,90,0.00,,---,0.25,VWS V14.00,2013-05-22 14:55:00,
2013-05-22 10:56:00,58.3,55.4,29.87,WSW,248,0.0,2.0,90,0.00,,---,0.25,VWS V14.00,2013-05-22 14:56:00,
2013-05-22 10:58:00,58.3,55.4,29.88,WSW,248,0.0,2.0,90,0.00,,---,0.25,VWS V14.00,2013-05-22 14:58:00,
2013-05-22 10:59:00,58.4,55.5,29.88,WSW,248,1.0,2.0,90,0.00,,---,0.25,VWS V14.00,2013-05-22 14:59:00,
2013-05-22 11:00:00,58.3,55.4,29.88,WSW,248,2.0,2.0,90,0.00,,---,0.25,VWS V14.00,2013-05-22 15:00:00,
2013-05-22 11:01:00,58.4,55.2,29.88,WSW,248,1.0,4.0,89,0.00,,---,0.25,VWS V14.00,2013-05-22 15:01:00,
2013-05-22 11:03:00,58.4,55.2,29.88,WSW,248,0.0,4.0,89,0.00,,---,0.25,VWS V14.00,2013-05-22 15:03:00,
2013-05-22 11:04:00,58.4,54.9,29.88,WSW,248,0.0,4.0,88,0.00,,---,0.25,VWS V14.00,2013-05-22 15:04:00,
2013-05-22 11:06:00,58.4,54.9,29.88,WSW,248,0.0,4.0,88,0.00,,---,0.25,VWS V14.00,2013-05-22 15:06:00,
2013-05-22 11:08:00,58.4,54.9,29.88,WSW,248,0.0,4.0,88,0.00,,---,0.25,VWS V14.00,2013-05-22 15:08:00,
2013-05-22 11:09:00,58.6,55.1,29.88,WSW,248,0.0,4.0,88,0.00,,---,0.25,VWS V14.00,2013-05-22 15:09:00,
2013-05-22 11:11:00,58.9,55.7,29.88,WSW,248,0.0,4.0,89,0.00,,---,0.25,VWS V14.00,2013-05-22 15:11:00,
2013-05-22 11:13:00,59.0,55.8,29.88,WSW,248,0.0,4.0,89,0.00,,---,0.25,VWS V14.00,2013-05-22 15:13:00,
2013-05-22 11:14:00,59.2,55.7,29.88,WSW,248,0.0,0.0,88,0.00,,---,0.25,VWS V14.00,2013-05-22 15:14:00,
2013-05-22 11:15:00,59.2,55.7,29.88,WSW,248,0.0,4.0,88,0.00,,---,0.25,VWS V14.00,2013-05-22 15:15:00,
2013-05-22 11:16:00,59.3,55.8,29.88,WSW,248,0.0,0.0,88,0.00,,---,0.25,VWS V14.00,2013-05-22 15:16:00,
2013-05-22 11:18:00,59.5,55.6,29.88,WSW,248,0.0,1.0,87,0.00,,---,0.25,VWS V14.00,2013-05-22 15:18:00,
2013-05-22 11:19:00,59.5,55.6,29.88,WSW,248,0.0,1.0,87,0.00,,---,0.25,VWS V14.00,2013-05-22 15:19:00,
2013-05-22 11:20:00,59.5,55.6,29.88,WSW,248,1.0,1.0,87,0.00,,---,0.25,VWS V14.00,2013-05-22 15:20:00,
2013-05-22 11:21:00,59.5,55.3,29.88,WSW,248,0.0,1.0,86,0.00,,---,0.25,VWS V14.00,2013-05-22 15:21:00,
2013-05-22 11:23:00,59.6,55.4,29.88,WSW,248,0.0,1.0,86,0.00,,---,0.25,VWS V14.00,2013-05-22 15:23:00,
2013-05-22 11:24:00,59.8,55.6,29.88,WSW,248,0.0,1.0,86,0.00,,---,0.25,VWS V14.00,2013-05-22 15:24:00,
2013-05-22 11:25:00,59.8,55.6,29.88,WSW,248,0.0,1.0,86,0.00,,---,0.25,VWS V14.00,2013-05-22 15:25:00,
2013-05-22 11:26:00,59.8,55.6,29.88,WSW,248,0.0,1.0,86,0.00,,---,0.25,VWS V14.00,2013-05-22 15:26:00,
2013-05-22 11:28:00,59.8,55.6,29.88,WSW,248,0.0,1.0,86,0.00,,---,0.25,VWS V14.00,2013-05-22 15:28:00,
2013-05-22 11:29:00,59.9,55.4,29.88,WSW,248,0.0,1.0,85,0.00,,---,0.25,VWS V14.00,2013-05-22 15:29:00,
2013-05-22 11:30:00,59.9,55.4,29.88,WSW,248,0.0,1.0,85,0.00,,---,0.25,VWS V14.00,2013-05-22 15:30:00,
2013-05-22 11:31:00,59.9,55.7,29.88,WSW,248,2.0,4.0,86,0.00,,---,0.25,VWS V14.00,2013-05-22 15:31:00,
2013-05-22 11:33:00,59.8,55.3,29.88,WSW,248,0.0,4.0,85,0.00,,---,0.25,VWS V14.00,2013-05-22 15:33:00,
2013-05-22 11:34:00,59.9,55.4,29.88,WSW,248,0.0,4.0,85,0.00,,---,0.25,VWS V14.00,2013-05-22 15:34:00,
2013-05-22 11:35:00,59.9,55.4,29.88,WSW,248,0.0,4.0,85,0.00,,---,0.25,VWS V14.00,2013-05-22 15:35:00,
2013-05-22 11:36:00,60.1,55.6,29.88,WSW,248,0.0,4.0,85,0.00,,---,0.25,VWS V14.00,2013-05-22 15:36:00,
2013-05-22 11:37:00,60.1,55.3,29.88,WSW,248,0.0,4.0,84,0.00,,---,0.25,VWS V14.00,2013-05-22 15:37:00,
2013-05-22 11:39:00,60.2,55.3,29.88,WSW,248,0.0,4.0,84,0.00,,---,0.25,VWS V14.00,2013-05-22 15:39:00,
2013-05-22 11:40:00,60.2,55.3,29.88,WSW,248,0.0,4.0,84,0.00,,---,0.25,VWS V14.00,2013-05-22 15:40:00,
2013-05-22 11:41:00,60.2,55.3,29.88,WSW,248,0.0,4.0,84,0.00,,---,0.25,VWS V14.00,2013-05-22 15:41:00,
2013-05-22 11:42:00,60.4,55.5,29.88,WSW,248,0.0,4.0,84,0.00,,---,0.25,VWS V14.00,2013-05-22 15:42:00,
2013-05-22 11:44:00,60.5,55.7,29.88,WSW,248,0.0,4.0,84,0.00,,---,0.25,VWS V14.00,2013-05-22 15:44:00,
2013-05-22 11:45:00,60.7,55.5,29.88,WSW,248,0.0,0.0,83,0.00,,---,0.25,VWS V14.00,2013-05-22 15:45:00,
2013-05-22 11:46:00,60.7,55.5,29.88,WSW,248,0.0,0.0,83,0.00,,---,0.25,VWS V14.00,2013-05-22 15:46:00,
2013-05-22 11:47:00,60.7,55.5,29.88,WSW,248,0.0,0.0,83,0.00,,---,0.25,VWS V14.00,2013-05-22 15:47:00,
2013-05-22 11:49:00,61.0,55.8,29.88,WSW,248,0.0,0.0,83,0.00,,---,0.25,VWS V14.00,2013-05-22 15:49:00,
2013-05-22 11:50:00,61.0,55.8,29.88,WSW,248,0.0,1.0,83,0.00,,---,0.25,VWS V14.00,2013-05-22 15:50:00,
2013-05-22 11:51:00,61.2,56.0,29.88,WSW,248,0.0,1.0,83,0.00,,---,0.25,VWS V14.00,2013-05-22 15:51:00,
2013-05-22 11:52:00,61.3,56.1,29.88,WSW,248,0.0,1.0,83,0.00,,---,0.25,VWS V14.00,2013-05-22 15:52:00,
2013-05-22 11:54:00,61.5,56.0,29.88,WSW,248,0.0,1.0,82,0.00,,---,0.25,VWS V14.00,2013-05-22 15:54:00,
2013-05-22 11:55:00,61.5,56.0,29.88,WSW,248,0.0,1.0,82,0.00,,---,0.25,VWS V14.00,2013-05-22 15:55:00,
2013-05-22 11:56:00,61.6,56.1,29.88,WSW,248,0.0,1.0,82,0.00,,---,0.25,VWS V14.00,2013-05-22 15:56:00,
2013-05-22 11:57:00,61.8,55.9,29.88,WSW,248,0.0,1.0,81,0.00,,---,0.25,VWS V14.00,2013-05-22 15:57:00,
2013-05-22 11:59:00,62.0,55.8,29.88,WSW,248,0.0,2.0,80,0.00,,---,0.25,VWS V14.00,2013-05-22 15:59:00,
2013-05-22 12:00:00,62.0,55.8,29.88,WSW,248,0.0,2.0,80,0.00,,---,0.25,VWS V14.00,2013-05-22 16:00:00,
2013-05-22 12:01:00,62.0,55.8,29.88,WSW,248,0.0,2.0,80,0.00,,---,0.25,VWS V14.00,2013-05-22 16:01:00,
2013-05-22 12:02:00,62.0,55.8,29.88,WSW,248,0.0,2.0,80,0.00,,---,0.25,VWS V14.00,2013-05-22 16:02:00,
2013-05-22 12:05:00,62.1,55.5,29.88,WSW,248,0.0,2.0,79,0.00,,---,0.25,VWS V14.00,2013-05-22 16:05:00,
2013-05-22 12:06:00,62.1,55.5,29.88,WSW,248,0.0,2.0,79,0.00,,---,0.25,VWS V14.00,2013-05-22 16:06:00,
2013-05-22 12:07:00,62.1,55.9,29.88,WSW,248,0.0,2.0,80,0.00,,---,0.25,VWS V14.00,2013-05-22 16:07:00,
2013-05-22 12:10:00,62.4,56.2,29.88,WSW,248,0.0,2.0,80,0.00,,---,0.25,VWS V14.00,2013-05-22 16:10:00,
2013-05-22 12:11:00,62.4,55.8,29.88,WSW,248,0.0,2.0,79,0.00,,---,0.25,VWS V14.00,2013-05-22 16:11:00,
2013-05-22 12:12:00,62.6,56.0,29.88,WSW,248,2.0,2.0,79,0.00,,---,0.25,VWS V14.00,2013-05-22 16:12:00,
2013-05-22 12:15:00,62.6,55.7,29.88,WSW,248,0.0,1.0,78,0.00,,---,0.25,VWS V14.00,2013-05-22 16:15:00,
2013-05-22 12:16:00,62.6,56.0,29.88,WSW,248,0.0,1.0,79,0.00,,---,0.25,VWS V14.00,2013-05-22 16:16:00,
2013-05-22 12:17:00,62.6,56.0,29.88,WSW,248,0.0,1.0,79,0.00,,---,0.25,VWS V14.00,2013-05-22 16:17:00,
2013-05-22 12:20:00,62.6,55.7,29.88,WSW,248,1.0,4.0,78,0.00,,---,0.25,VWS V14.00,2013-05-22 16:20:00,
2013-05-22 12:21:00,62.6,55.7,29.88,WSW,248,0.0,4.0,78,0.00,,---,0.25,VWS V14.00,2013-05-22 16:21:00,
2013-05-22 12:22:00,62.6,55.7,29.88,WSW,248,0.0,4.0,78,0.00,,---,0.25,VWS V14.00,2013-05-22 16:22:00,
2013-05-22 12:23:00,62.6,56.0,29.88,WSW,248,0.0,4.0,79,0.00,,---,0.25,VWS V14.00,2013-05-22 16:23:00,
2013-05-22 12:25:00,62.7,55.8,29.88,WSW,248,1.0,4.0,78,0.00,,---,0.25,VWS V14.00,2013-05-22 16:25:00,
2013-05-22 12:26:00,62.6,55.7,29.88,WSW,248,0.0,4.0,78,0.00,,---,0.25,VWS V14.00,2013-05-22 16:26:00,
2013-05-22 12:27:00,62.6,55.7,29.88,WSW,248,0.0,4.0,78,0.00,,---,0.25,VWS V14.00,2013-05-22 16:27:00,
2013-05-22 12:28:00,62.6,55.7,29.88,WSW,248,0.0,4.0,78,0.00,,---,0.25,VWS V14.00,2013-05-22 16:28:00,
2013-05-22 12:30:00,62.6,55.7,29.88,WSW,248,0.0,4.0,78,0.00,,---,0.25,VWS V14.00,2013-05-22 16:30:00,
2013-05-22 12:31:00,62.7,56.1,29.88,WSW,248,0.0,0.0,79,0.00,,---,0.25,VWS V14.00,2013-05-22 16:31:00,
2013-05-22 12:32:00,62.9,56.3,29.88,WSW,248,0.0,0.0,79,0.00,,---,0.25,VWS V14.00,2013-05-22 16:32:00,
2013-05-22 12:33:00,63.1,56.5,29.88,WSW,248,0.0,0.0,79,0.00,,---,0.25,VWS V14.00,2013-05-22 16:33:00,
2013-05-22 12:36:00,63.4,56.8,29.88,WSW,248,0.0,0.0,79,0.00,,---,0.25,VWS V14.00,2013-05-22 16:36:00,
2013-05-22 12:37:00,63.5,56.5,29.88,WSW,248,0.0,0.0,78,0.00,,---,0.25,VWS V14.00,2013-05-22 16:37:00,
2013-05-22 12:38:00,63.7,56.7,29.88,WSW,248,0.0,0.0,78,0.00,,---,0.25,VWS V14.00,2013-05-22 16:38:00,
2013-05-22 12:41:00,64.0,56.7,29.88,WSW,248,0.0,0.0,77,0.00,,---,0.25,VWS V14.00,2013-05-22 16:41:00,
2013-05-22 12:42:00,64.2,56.8,29.88,WSW,248,2.0,2.0,77,0.00,,---,0.25,VWS V14.00,2013-05-22 16:42:00,
2013-05-22 12:43:00,64.2,56.8,29.88,WSW,248,1.0,2.0,77,0.00,,---,0.25,VWS V14.00,2013-05-22 16:43:00,
2013-05-22 12:45:00,64.3,56.6,29.88,WSW,248,1.0,2.0,76,0.00,,---,0.25,VWS V14.00,2013-05-22 16:45:00,
2013-05-22 12:46:00,64.3,56.2,29.88,WSW,248,0.0,1.0,75,0.00,,---,0.25,VWS V14.00,2013-05-22 16:46:00,
2013-05-22 12:47:00,64.5,56.4,29.88,WSW,248,0.0,1.0,75,0.00,,---,0.25,VWS V14.00,2013-05-22 16:47:00,
2013-05-22 12:48:00,64.5,56.4,29.88,WSW,248,0.0,1.0,75,0.00,,---,0.25,VWS V14.00,2013-05-22 16:48:00,
2013-05-22 12:51:00,64.5,56.8,29.88,WSW,248,0.0,1.0,76,0.00,,---,0.25,VWS V14.00,2013-05-22 16:51:00,
2013-05-22 12:52:00,64.5,56.8,29.88,WSW,248,0.0,1.0,76,0.00,,---,0.25,VWS V14.00,2013-05-22 16:52:00,
2013-05-22 12:53:00,64.7,57.0,29.88,WSW,248,0.0,1.0,76,0.00,,---,0.25,VWS V14.00,2013-05-22 16:53:00,
2013-05-22 12:56:00,65.2,57.8,29.88,WSW,248,0.0,1.0,77,0.00,,---,0.25,VWS V14.00,2013-05-22 16:56:00,
2013-05-22 12:57:00,65.2,57.5,29.88,WSW,248,0.0,1.0,76,0.00,,---,0.25,VWS V14.00,2013-05-22 16:57:00,
2013-05-22 12:58:00,65.2,57.1,29.88,WSW,248,0.0,1.0,75,0.00,,---,0.25,VWS V14.00,2013-05-22 16:58:00,
2013-05-22 13:00:00,65.3,57.2,29.88,WSW,248,0.0,1.0,75,0.00,,---,0.25,VWS V14.00,2013-05-22 17:00:00,
2013-05-22 13:02:00,65.5,57.4,29.88,WSW,248,0.0,0.0,75,0.00,,---,0.25,VWS V14.00,2013-05-22 17:02:00,
2013-05-22 13:03:00,65.6,57.5,29.88,WSW,248,0.0,0.0,75,0.00,,---,0.25,VWS V14.00,2013-05-22 17:03:00,
2013-05-22 13:04:00,65.6,57.5,29.88,WSW,248,0.0,0.0,75,0.00,,---,0.25,VWS V14.00,2013-05-22 17:04:00,
2013-05-22 13:07:00,65.8,57.3,29.88,WSW,248,0.0,0.0,74,0.00,,---,0.25,VWS V14.00,2013-05-22 17:07:00,
2013-05-22 13:08:00,66.0,57.5,29.88,WSW,248,0.0,1.0,74,0.00,,---,0.25,VWS V14.00,2013-05-22 17:08:00,
2013-05-22 13:09:00,66.0,57.1,29.88,WSW,248,0.0,1.0,73,0.00,,---,0.25,VWS V14.00,2013-05-22 17:09:00,
2013-05-22 13:12:00,66.1,57.6,29.88,WSW,248,0.0,1.0,74,0.00,,---,0.25,VWS V14.00,2013-05-22 17:12:00,
2013-05-22 13:13:00,66.3,57.4,29.88,WSW,248,0.0,1.0,73,0.00,,---,0.25,VWS V14.00,2013-05-22 17:13:00,
2013-05-22 13:14:00,66.3,57.4,29.88,WSW,248,0.0,0.0,73,0.00,,---,0.25,VWS V14.00,2013-05-22 17:14:00,
2013-05-22 13:15:00,66.3,57.4,29.88,WSW,248,0.0,1.0,73,0.00,,---,0.25,VWS V14.00,2013-05-22 17:15:00,
2013-05-22 13:17:00,66.1,56.8,29.88,WSW,248,1.0,2.0,72,0.00,,---,0.25,VWS V14.00,2013-05-22 17:17:00,
2013-05-22 13:18:00,66.1,57.2,29.88,WSW,248,0.0,2.0,73,0.00,,---,0.25,VWS V14.00,2013-05-22 17:18:00,
2013-05-22 13:19:00,66.0,57.1,29.88,WSW,248,0.0,2.0,73,0.00,,---,0.25,VWS V14.00,2013-05-22 17:19:00,
2013-05-22 13:22:00,65.8,57.3,29.88,WSW,248,0.0,3.0,74,0.00,,---,0.25,VWS V14.00,2013-05-22 17:22:00,
2013-05-22 13:23:00,66.0,57.5,29.88,WSW,248,0.0,3.0,74,0.00,,---,0.25,VWS V14.00,2013-05-22 17:23:00,
2013-05-22 13:25:00,66.0,57.5,29.88,WSW,248,0.0,3.0,74,0.00,,---,0.25,VWS V14.00,2013-05-22 17:25:00,
2013-05-22 13:27:00,66.0,57.5,29.88,WSW,248,0.0,3.0,74,0.00,,---,0.25,VWS V14.00,2013-05-22 17:27:00,
2013-05-22 13:28:00,66.0,57.1,29.88,WSW,248,0.0,3.0,73,0.00,,---,0.25,VWS V14.00,2013-05-22 17:28:00,
2013-05-22 13:29:00,66.0,57.1,29.87,WSW,248,0.0,3.0,73,0.00,,---,0.25,VWS V14.00,2013-05-22 17:29:00,
2013-05-22 13:30:00,66.0,57.1,29.87,WSW,248,0.0,1.0,73,0.00,,---,0.25,VWS V14.00,2013-05-22 17:30:00,
2013-05-22 13:32:00,65.8,56.9,29.87,WSW,248,0.0,1.0,73,0.00,,---,0.25,VWS V14.00,2013-05-22 17:32:00,
2013-05-22 13:33:00,65.8,56.9,29.87,WSW,248,0.0,1.0,73,0.00,,---,0.25,VWS V14.00,2013-05-22 17:33:00,
2013-05-22 13:34:00,65.8,56.9,29.87,WSW,248,0.0,1.0,73,0.00,,---,0.25,VWS V14.00,2013-05-22 17:34:00,
2013-05-22 13:35:00,66.0,57.5,29.87,WSW,248,0.0,1.0,74,0.00,,---,0.25,VWS V14.00,2013-05-22 17:35:00,
2013-05-22 13:37:00,65.8,57.3,29.87,WSW,248,0.0,1.0,74,0.00,,---,0.25,VWS V14.00,2013-05-22 17:37:00,
2013-05-22 13:38:00,65.8,57.3,29.87,WSW,248,0.0,1.0,74,0.00,,---,0.25,VWS V14.00,2013-05-22 17:38:00,
2013-05-22 13:39:00,65.8,57.3,29.87,WSW,248,0.0,1.0,74,0.00,,---,0.25,VWS V14.00,2013-05-22 17:39:00,
2013-05-22 13:40:00,65.8,57.3,29.87,WSW,248,0.0,1.0,74,0.00,,---,0.25,VWS V14.00,2013-05-22 17:40:00,
2013-05-22 13:43:00,65.8,57.3,29.87,WSW,248,0.0,1.0,74,0.00,,---,0.25,VWS V14.00,2013-05-22 17:43:00,
2013-05-22 13:44:00,65.8,57.3,29.87,WSW,248,0.0,0.0,74,0.00,,---,0.25,VWS V14.00,2013-05-22 17:44:00,
2013-05-22 13:45:00,65.8,57.3,29.87,WSW,248,0.0,0.0,74,0.00,,---,0.25,VWS V14.00,2013-05-22 17:45:00,
2013-05-22 13:48:00,65.6,57.1,29.87,WSW,248,0.0,1.0,74,0.00,,---,0.25,VWS V14.00,2013-05-22 17:48:00,
2013-05-22 13:49:00,65.6,57.1,29.87,WSW,248,0.0,1.0,74,0.00,,---,0.25,VWS V14.00,2013-05-22 17:49:00,
2013-05-22 13:50:00,65.6,57.1,29.87,WSW,248,0.0,1.0,74,0.00,,---,0.25,VWS V14.00,2013-05-22 17:50:00,
2013-05-22 13:53:00,65.5,57.0,29.87,WSW,248,0.0,1.0,74,0.00,,---,0.25,VWS V14.00,2013-05-22 17:53:00,
2013-05-22 13:54:00,65.6,57.5,29.87,WSW,248,0.0,1.0,75,0.00,,---,0.25,VWS V14.00,2013-05-22 17:54:00,
2013-05-22 13:55:00,65.6,57.5,29.87,WSW,248,0.0,1.0,75,0.00,,---,0.25,VWS V14.00,2013-05-22 17:55:00,
2013-05-22 13:58:00,65.5,57.0,29.86,WSW,248,0.0,1.0,74,0.00,,---,0.25,VWS V14.00,2013-05-22 17:58:00,
2013-05-22 13:59:00,65.5,57.4,29.86,WSW,248,0.0,1.0,75,0.00,,---,0.25,VWS V14.00,2013-05-22 17:59:00,
2013-05-22 14:00:00,65.5,57.4,29.86,WSW,248,0.0,1.0,75,0.00,,---,0.25,VWS V14.00,2013-05-22 18:00:00,
2013-05-22 14:03:00,65.6,57.5,29.86,WSW,248,0.0,1.0,75,0.00,,---,0.25,VWS V14.00,2013-05-22 18:03:00,
2013-05-22 14:05:00,65.6,57.5,29.86,WSW,248,1.0,2.0,75,0.00,,---,0.25,VWS V14.00,2013-05-22 18:05:00,
2013-05-22 14:06:00,65.6,57.5,29.86,WSW,248,0.0,2.0,75,0.00,,---,0.25,VWS V14.00,2013-05-22 18:06:00,
2013-05-22 14:08:00,65.8,57.7,29.86,WSW,248,0.0,2.0,75,0.00,,---,0.25,VWS V14.00,2013-05-22 18:08:00,
2013-05-22 14:10:00,65.8,57.7,29.86,WSW,248,0.0,2.0,75,0.00,,---,0.25,VWS V14.00,2013-05-22 18:10:00,
2013-05-22 14:11:00,66.0,58.2,29.86,WSW,248,0.0,2.0,76,0.00,,---,0.25,VWS V14.00,2013-05-22 18:11:00,
2013-05-22 14:13:00,66.1,58.0,29.86,WSW,248,0.0,2.0,75,0.00,,---,0.25,VWS V14.00,2013-05-22 18:13:00,
2013-05-22 14:14:00,66.3,58.5,29.86,WSW,248,0.0,0.0,76,0.00,,---,0.25,VWS V14.00,2013-05-22 18:14:00,
2013-05-22 14:15:00,66.3,58.2,29.86,WSW,248,0.0,0.0,75,0.00,,---,0.25,VWS V14.00,2013-05-22 18:15:00,
2013-05-22 14:16:00,66.6,58.4,29.86,WSW,248,0.0,1.0,75,0.00,,---,0.25,VWS V14.00,2013-05-22 18:16:00,
2013-05-22 14:18:00,66.8,58.6,29.86,WSW,248,0.0,1.0,75,0.00,,---,0.25,VWS V14.00,2013-05-22 18:18:00,
2013-05-22 14:19:00,66.8,58.6,29.86,WSW,248,0.0,1.0,75,0.00,,---,0.25,VWS V14.00,2013-05-22 18:19:00,
2013-05-22 14:20:00,66.9,58.7,29.86,WSW,248,0.0,1.0,75,0.00,,---,0.25,VWS V14.00,2013-05-22 18:20:00,
2013-05-22 14:22:00,67.1,58.5,29.86,WSW,248,0.0,1.0,74,0.00,,---,0.25,VWS V14.00,2013-05-22 18:22:00,
2013-05-22 14:23:00,67.1,58.2,29.86,WSW,248,0.0,1.0,73,0.00,,---,0.25,VWS V14.00,2013-05-22 18:23:00,
2013-05-22 14:24:00,67.1,58.2,29.86,WSW,248,0.0,1.0,73,0.00,,---,0.25,VWS V14.00,2013-05-22 18:24:00,
2013-05-22 14:25:00,67.3,58.4,29.86,WSW,248,0.0,1.0,73,0.00,,---,0.25,VWS V14.00,2013-05-22 18:25:00,
2013-05-22 14:27:00,67.3,58.4,29.86,WSW,248,0.0,1.0,73,0.00,,---,0.25,VWS V14.00,2013-05-22 18:27:00,
2013-05-22 14:28:00,67.3,58.4,29.85,WSW,248,1.0,1.0,73,0.00,,---,0.25,VWS V14.00,2013-05-22 18:28:00,
2013-05-22 14:29:00,67.3,58.4,29.85,WSW,248,0.0,0.0,73,0.00,,---,0.25,VWS V14.00,2013-05-22 18:29:00,
2013-05-22 14:30:00,67.3,58.4,29.85,WSW,248,0.0,0.0,73,0.00,,---,0.25,VWS V14.00,2013-05-22 18:30:00,
2013-05-22 14:31:00,67.3,58.4,29.85,WSW,248,0.0,0.0,73,0.00,,---,0.25,VWS V14.00,2013-05-22 18:31:00,
2013-05-22 14:32:00,67.3,58.4,29.85,WSW,248,0.0,1.0,73,0.00,,---,0.25,VWS V14.00,2013-05-22 18:32:00,
2013-05-22 14:33:00,67.3,58.0,29.85,WSW,248,0.0,2.0,72,0.00,,---,0.25,VWS V14.00,2013-05-22 18:33:00,
2013-05-22 14:34:00,67.1,58.2,29.85,WSW,248,0.0,2.0,73,0.00,,---,0.25,VWS V14.00,2013-05-22 18:34:00,
2013-05-22 14:35:00,67.3,58.4,29.85,WSW,248,0.0,2.0,73,0.00,,---,0.25,VWS V14.00,2013-05-22 18:35:00,
2013-05-22 14:36:00,67.3,58.4,29.85,WSW,248,0.0,2.0,73,0.00,,---,0.25,VWS V14.00,2013-05-22 18:36:00,
2013-05-22 14:37:00,67.3,58.4,29.85,WSW,248,0.0,2.0,73,0.00,,---,0.25,VWS V14.00,2013-05-22 18:37:00,
2013-05-22 14:39:00,67.3,58.4,29.85,WSW,248,0.0,2.0,73,0.00,,---,0.25,VWS V14.00,2013-05-22 18:39:00,
2013-05-22 14:40:00,67.3,58.4,29.85,WSW,248,2.0,2.0,73,0.00,,---,0.25,VWS V14.00,2013-05-22 18:40:00,
2013-05-22 14:41:00,67.3,58.0,29.85,WSW,248,0.0,2.0,72,0.00,,---,0.25,VWS V14.00,2013-05-22 18:41:00,
2013-05-22 14:42:00,67.3,58.0,29.85,WSW,248,0.0,2.0,72,0.00,,---,0.25,VWS V14.00,2013-05-22 18:42:00,
2013-05-22 14:44:00,67.3,58.0,29.85,WSW,248,0.0,2.0,72,0.00,,---,0.25,VWS V14.00,2013-05-22 18:44:00,
2013-05-22 14:45:00,67.3,58.0,29.85,ENE,62,3.0,3.0,72,0.00,,---,0.25,VWS V14.00,2013-05-22 18:45:00,
2013-05-22 14:46:00,66.9,57.2,29.85,ESE,118,0.0,5.0,71,0.00,,---,0.25,VWS V14.00,2013-05-22 18:46:00,
2013-05-22 14:47:00,66.8,57.1,29.85,ESE,116,0.0,5.0,71,0.00,,---,0.25,VWS V14.00,2013-05-22 18:47:00,
2013-05-22 14:49:00,66.4,56.7,29.85,ESE,116,1.0,5.0,71,0.00,,---,0.25,VWS V14.00,2013-05-22 18:49:00,
2013-05-22 14:50:00,66.3,56.6,29.85,ENE,69,2.0,5.0,71,0.00,,---,0.25,VWS V14.00,2013-05-22 18:50:00,
2013-05-22 14:51:00,66.1,56.8,29.85,ENE,70,0.0,5.0,72,0.00,,---,0.25,VWS V14.00,2013-05-22 18:51:00,
2013-05-22 14:52:00,66.1,56.8,29.85,ENE,62,2.0,5.0,72,0.00,,---,0.25,VWS V14.00,2013-05-22 18:52:00,
2013-05-22 14:54:00,66.0,56.3,29.85,East,86,0.0,5.0,71,0.00,,---,0.25,VWS V14.00,2013-05-22 18:54:00,
2013-05-22 14:55:00,65.8,56.5,29.85,East,86,0.0,5.0,72,0.00,,---,0.25,VWS V14.00,2013-05-22 18:55:00,
2013-05-22 14:57:00,65.6,56.3,29.85,East,84,0.0,5.0,72,0.00,,---,0.25,VWS V14.00,2013-05-22 18:57:00,
2013-05-22 14:58:00,65.6,56.7,29.85,East,84,0.0,5.0,73,0.00,,---,0.25,VWS V14.00,2013-05-22 18:58:00,
2013-05-22 14:59:00,65.5,56.2,29.85,East,84,0.0,5.0,72,0.00,,---,0.25,VWS V14.00,2013-05-22 18:59:00,
2013-05-22 15:00:00,65.3,56.0,29.85,East,84,1.0,1.0,72,0.00,,---,0.25,VWS V14.00,2013-05-22 19:00:00,
2013-05-22 15:02:00,65.2,56.0,29.85,East,79,0.0,2.0,72,0.00,,---,0.25,VWS V14.00,2013-05-22 19:02:00,
2013-05-22 15:03:00,65.2,56.0,29.85,East,92,2.0,2.0,72,0.00,,---,0.25,VWS V14.00,2013-05-22 19:03:00,
2013-05-22 15:04:00,65.0,55.8,29.85,East,92,0.0,2.0,72,0.00,,---,0.25,VWS V14.00,2013-05-22 19:04:00,
2013-05-22 15:06:00,64.7,55.9,29.85,ENE,72,1.0,3.0,73,0.00,,---,0.25,VWS V14.00,2013-05-22 19:06:00,
2013-05-22 15:07:00,64.7,55.9,29.85,ENE,73,0.0,3.0,73,0.00,,---,0.25,VWS V14.00,2013-05-22 19:07:00,
2013-05-22 15:08:00,64.5,56.0,29.85,ENE,73,0.0,3.0,74,0.00,,---,0.25,VWS V14.00,2013-05-22 19:08:00,
2013-05-22 15:09:00,64.5,56.0,29.85,ENE,73,0.0,3.0,74,0.00,,---,0.25,VWS V14.00,2013-05-22 19:09:00,
2013-05-22 15:11:00,64.5,56.0,29.85,ENE,73,0.0,3.0,74,0.00,,---,0.25,VWS V14.00,2013-05-22 19:11:00,
2013-05-22 15:12:00,64.7,56.2,29.85,ENE,72,0.0,3.0,74,0.00,,---,0.25,VWS V14.00,2013-05-22 19:12:00,
2013-05-22 15:13:00,64.5,56.0,29.85,ENE,72,1.0,3.0,74,0.00,,---,0.25,VWS V14.00,2013-05-22 19:13:00,
2013-05-22 15:14:00,64.3,55.5,29.85,East,82,1.0,2.0,73,0.00,,---,0.25,VWS V14.00,2013-05-22 19:14:00,
2013-05-22 15:15:00,64.5,55.7,29.85,ENE,64,1.0,3.0,73,0.00,,---,0.25,VWS V14.00,2013-05-22 19:15:00,
2013-05-22 15:16:00,64.3,55.8,29.85,ENE,60,1.0,2.0,74,0.00,,---,0.25,VWS V14.00,2013-05-22 19:16:00,
2013-05-22 15:17:00,64.2,55.8,29.85,ENE,61,0.0,2.0,74,0.00,,---,0.25,VWS V14.00,2013-05-22 19:17:00,
2013-05-22 15:18:00,64.2,55.8,29.85,ENE,62,0.0,2.0,74,0.00,,---,0.25,VWS V14.00,2013-05-22 19:18:00,
2013-05-22 15:19:00,64.0,55.6,29.85,ENE,62,0.0,2.0,74,0.00,,---,0.25,VWS V14.00,2013-05-22 19:19:00,
2013-05-22 15:21:00,64.0,55.6,29.85,ENE,62,0.0,2.0,74,0.00,,---,0.25,VWS V14.00,2013-05-22 19:21:00,
2013-05-22 15:22:00,64.0,55.6,29.85,ENE,62,1.0,2.0,74,0.00,,---,0.25,VWS V14.00,2013-05-22 19:22:00,
2013-05-22 15:23:00,63.9,55.5,29.85,ENE,62,0.0,2.0,74,0.00,,---,0.25,VWS V14.00,2013-05-22 19:23:00,
2013-05-22 15:24:00,63.9,55.5,29.85,ENE,62,1.0,2.0,74,0.00,,---,0.25,VWS V14.00,2013-05-22 19:24:00,
2013-05-22 15:26:00,63.7,55.3,29.85,East,79,0.0,2.0,74,0.00,,---,0.25,VWS V14.00,2013-05-22 19:26:00,
2013-05-22 15:27:00,63.5,55.1,29.85,East,84,0.0,2.0,74,0.00,,---,0.25,VWS V14.00,2013-05-22 19:27:00,
2013-05-22 15:29:00,63.5,55.4,29.85,East,84,0.0,2.0,75,0.00,,---,0.25,VWS V14.00,2013-05-22 19:29:00,
2013-05-22 15:30:00,63.5,55.4,29.85,East,84,0.0,2.0,75,0.00,,---,0.25,VWS V14.00,2013-05-22 19:30:00,
2013-05-22 15:31:00,63.4,55.3,29.85,East,84,0.0,2.0,75,0.00,,---,0.25,VWS V14.00,2013-05-22 19:31:00,
2013-05-22 15:32:00,63.2,55.2,29.85,East,84,0.0,2.0,75,0.00,,---,0.25,VWS V14.00,2013-05-22 19:32:00,
2013-05-22 15:34:00,63.2,55.5,29.85,East,84,0.0,2.0,76,0.00,,---,0.25,VWS V14.00,2013-05-22 19:34:00,
2013-05-22 15:36:00,62.9,54.9,29.85,East,84,0.0,2.0,75,0.00,,---,0.25,VWS V14.00,2013-05-22 19:36:00,
2013-05-22 15:37:00,62.9,55.2,29.85,East,84,0.0,2.0,76,0.00,,---,0.25,VWS V14.00,2013-05-22 19:37:00,
2013-05-22 15:38:00,62.9,55.2,29.85,East,84,0.0,2.0,76,0.00,,---,0.25,VWS V14.00,2013-05-22 19:38:00,
2013-05-22 15:39:00,62.9,55.2,29.85,East,84,1.0,2.0,76,0.00,,---,0.25,VWS V14.00,2013-05-22 19:39:00,
2013-05-22 15:41:00,62.6,54.9,29.85,East,86,0.0,2.0,76,0.00,,---,0.25,VWS V14.00,2013-05-22 19:41:00,
2013-05-22 15:43:00,62.6,54.9,29.85,East,86,0.0,2.0,76,0.00,,---,0.25,VWS V14.00,2013-05-22 19:43:00,
2013-05-22 15:44:00,62.6,54.9,29.86,East,86,0.0,0.0,76,0.00,,---,0.25,VWS V14.00,2013-05-22 19:44:00,
2013-05-22 15:45:00,62.6,54.9,29.86,East,86,0.0,2.0,76,0.00,,---,0.25,VWS V14.00,2013-05-22 19:45:00,
2013-05-22 15:47:00,62.6,55.3,29.86,East,86,0.0,1.0,77,0.00,,---,0.25,VWS V14.00,2013-05-22 19:47:00,
2013-05-22 15:48:00,62.6,55.3,29.86,East,86,0.0,1.0,77,0.00,,---,0.25,VWS V14.00,2013-05-22 19:48:00,
2013-05-22 15:49:00,62.6,55.3,29.86,East,86,1.0,2.0,77,0.00,,---,0.25,VWS V14.00,2013-05-22 19:49:00,
2013-05-22 15:52:00,62.4,55.1,29.86,East,86,1.0,2.0,77,0.00,,---,0.25,VWS V14.00,2013-05-22 19:52:00,
2013-05-22 15:53:00,62.4,55.1,29.86,East,87,1.0,2.0,77,0.00,,---,0.25,VWS V14.00,2013-05-22 19:53:00,
2013-05-22 15:55:00,62.3,54.7,29.86,East,86,0.0,2.0,76,0.00,,---,0.25,VWS V14.00,2013-05-22 19:55:00,
2013-05-22 15:57:00,62.3,55.0,29.86,East,86,0.0,2.0,77,0.00,,---,0.25,VWS V14.00,2013-05-22 19:57:00,
2013-05-22 15:58:00,62.3,55.0,29.86,East,85,0.0,2.0,77,0.00,,---,0.25,VWS V14.00,2013-05-22 19:58:00,
2013-05-22 16:00:00,62.3,55.0,29.86,East,85,0.0,1.0,77,0.00,,---,0.25,VWS V14.00,2013-05-22 20:00:00,
2013-05-22 16:02:00,62.4,55.1,29.86,East,85,0.0,1.0,77,0.00,,---,0.25,VWS V14.00,2013-05-22 20:02:00,
2013-05-22 16:03:00,62.3,55.0,29.86,NE,41,0.0,2.0,77,0.00,,---,0.25,VWS V14.00,2013-05-22 20:03:00,
2013-05-22 16:04:00,62.3,55.0,29.86,NE,43,2.0,2.0,77,0.00,,---,0.25,VWS V14.00,2013-05-22 20:04:00,
2013-05-22 16:05:00,62.3,55.0,29.86,NE,44,0.0,2.0,77,0.00,,---,0.25,VWS V14.00,2013-05-22 20:05:00,
2013-05-22 16:07:00,62.3,55.0,29.86,ENE,58,0.0,2.0,77,0.00,,---,0.25,VWS V14.00,2013-05-22 20:07:00,
2013-05-22 16:08:00,62.3,54.7,29.86,East,82,2.0,3.0,76,0.00,,---,0.25,VWS V14.00,2013-05-22 20:08:00,
2013-05-22 16:09:00,62.3,54.7,29.86,East,82,0.0,3.0,76,0.00,,---,0.25,VWS V14.00,2013-05-22 20:09:00,
2013-05-22 16:10:00,62.1,54.5,29.86,East,80,1.0,3.0,76,0.00,,---,0.25,VWS V14.00,2013-05-22 20:10:00,
2013-05-22 16:12:00,62.0,54.4,29.86,East,91,2.0,3.0,76,0.00,,---,0.25,VWS V14.00,2013-05-22 20:12:00,
2013-05-22 16:13:00,62.0,54.4,29.86,East,91,0.0,3.0,76,0.00,,---,0.25,VWS V14.00,2013-05-22 20:13:00,
2013-05-22 16:14:00,62.0,54.4,29.86,East,91,1.0,3.0,76,0.00,,---,0.25,VWS V14.00,2013-05-22 20:14:00,
2013-05-22 16:15:00,62.0,54.4,29.86,ENE,70,0.0,4.0,76,0.00,,---,0.25,VWS V14.00,2013-05-22 20:15:00,
2013-05-22 16:17:00,61.8,54.2,29.86,East,101,0.0,4.0,76,0.00,,---,0.25,VWS V14.00,2013-05-22 20:17:00,
2013-05-22 16:18:00,61.8,54.2,29.86,East,93,0.0,4.0,76,0.00,,---,0.25,VWS V14.00,2013-05-22 20:18:00,
2013-05-22 16:19:00,61.8,54.2,29.86,East,93,1.0,4.0,76,0.00,,---,0.25,VWS V14.00,2013-05-22 20:19:00,
2013-05-22 16:20:00,61.8,54.2,29.86,East,93,1.0,4.0,76,0.00,,---,0.25,VWS V14.00,2013-05-22 20:20:00,
2013-05-22 16:23:00,61.8,54.5,29.86,East,89,0.0,4.0,77,0.00,,---,0.25,VWS V14.00,2013-05-22 20:23:00,
2013-05-22 16:24:00,61.8,54.5,29.86,East,89,1.0,4.0,77,0.00,,---,0.25,VWS V14.00,2013-05-22 20:24:00,
2013-05-22 16:25:00,61.8,54.5,29.86,East,94,0.0,4.0,77,0.00,,---,0.25,VWS V14.00,2013-05-22 20:25:00,
2013-05-22 16:28:00,62.0,54.7,29.84,East,95,0.0,4.0,77,0.00,,---,0.25,VWS V14.00,2013-05-22 20:28:00,
2013-05-22 16:29:00,62.0,54.7,29.84,East,95,0.0,4.0,77,0.00,,---,0.25,VWS V14.00,2013-05-22 20:29:00,
2013-05-22 16:30:00,62.0,54.7,29.84,East,95,0.0,1.0,77,0.00,,---,0.25,VWS V14.00,2013-05-22 20:30:00,
2013-05-22 16:33:00,62.0,54.4,29.84,ENE,70,0.0,3.0,76,0.00,,---,0.25,VWS V14.00,2013-05-22 20:33:00,
2013-05-22 16:34:00,62.0,54.0,29.84,ENE,71,2.0,3.0,75,0.00,,---,0.25,VWS V14.00,2013-05-22 20:34:00,
2013-05-22 16:35:00,62.0,54.0,29.84,ENE,70,0.0,3.0,75,0.00,,---,0.25,VWS V14.00,2013-05-22 20:35:00,
2013-05-22 16:38:00,62.0,54.0,29.84,ENE,77,0.0,3.0,75,0.00,,---,0.25,VWS V14.00,2013-05-22 20:38:00,
2013-05-22 16:39:00,62.0,54.0,29.84,West,279,1.0,3.0,75,0.00,,---,0.25,VWS V14.00,2013-05-22 20:39:00,
2013-05-22 16:40:00,62.0,54.0,29.84,West,276,1.0,3.0,75,0.00,,---,0.25,VWS V14.00,2013-05-22 20:40:00,
2013-05-22 16:41:00,62.0,54.0,29.84,SSW,207,3.0,3.0,75,0.00,,---,0.25,VWS V14.00,2013-05-22 20:41:00,
2013-05-22 16:43:00,61.8,53.8,29.85,SSW,205,0.0,3.0,75,0.00,,---,0.25,VWS V14.00,2013-05-22 20:43:00,
2013-05-22 16:44:00,61.8,53.8,29.85,SSW,203,0.0,1.0,75,0.00,,---,0.25,VWS V14.00,2013-05-22 20:44:00,
2013-05-22 16:45:00,61.8,53.8,29.85,ESE,109,0.0,1.0,75,0.00,,---,0.25,VWS V14.00,2013-05-22 20:45:00,
2013-05-22 16:46:00,61.8,53.8,29.85,ESE,109,0.0,1.0,75,0.00,,---,0.25,VWS V14.00,2013-05-22 20:46:00,
2013-05-22 16:48:00,61.6,53.6,29.85,ESE,109,0.0,2.0,75,0.00,,---,0.25,VWS V14.00,2013-05-22 20:48:00,
2013-05-22 16:49:00,61.6,53.6,29.85,SSE,164,2.0,2.0,75,0.00,,---,0.25,VWS V14.00,2013-05-22 20:49:00,
2013-05-22 16:50:00,61.6,53.6,29.85,SSE,164,0.0,2.0,75,0.00,,---,0.25,VWS V14.00,2013-05-22 20:50:00,
2013-05-22 16:51:00,61.6,53.6,29.85,SSE,164,0.0,2.0,75,0.00,,---,0.25,VWS V14.00,2013-05-22 20:51:00,
2013-05-22 16:53:00,61.6,53.6,29.85,South,182,1.0,3.0,75,0.00,,---,0.25,VWS V14.00,2013-05-22 20:53:00,
2013-05-22 16:54:00,61.5,53.5,29.85,South,181,1.0,3.0,75,0.00,,---,0.25,VWS V14.00,2013-05-22 20:54:00,
2013-05-22 16:55:00,61.5,53.5,29.85,South,181,0.0,3.0,75,0.00,,---,0.25,VWS V14.00,2013-05-22 20:55:00,
2013-05-22 16:56:00,61.5,53.5,29.85,South,181,0.0,3.0,75,0.00,,---,0.25,VWS V14.00,2013-05-22 20:56:00,
2013-05-22 16:58:00,61.5,53.9,29.85,South,181,0.0,3.0,76,0.00,,---,0.25,VWS V14.00,2013-05-22 20:58:00,
2013-05-22 16:59:00,61.5,53.9,29.85,South,181,0.0,0.0,76,0.00,,---,0.25,VWS V14.00,2013-05-22 20:59:00,
2013-05-22 17:00:00,61.5,53.5,29.85,South,181,0.0,0.0,75,0.00,,---,0.25,VWS V14.00,2013-05-22 21:00:00,
2013-05-22 17:01:00,61.5,53.5,29.85,SSW,213,0.0,3.0,75,0.00,,---,0.25,VWS V14.00,2013-05-22 21:01:00,
2013-05-22 17:03:00,61.3,53.3,29.85,SSW,213,0.0,3.0,75,0.00,,---,0.25,VWS V14.00,2013-05-22 21:03:00,
2013-05-22 17:05:00,61.3,53.3,29.85,SE,139,1.0,3.0,75,0.00,,---,0.25,VWS V14.00,2013-05-22 21:05:00,
2013-05-22 17:06:00,61.2,53.2,29.85,SE,136,0.0,3.0,75,0.00,,---,0.25,VWS V14.00,2013-05-22 21:06:00,
2013-05-22 17:09:00,60.9,52.9,29.85,ESE,105,1.0,3.0,75,0.00,,---,0.25,VWS V14.00,2013-05-22 21:09:00,
2013-05-22 17:10:00,60.7,52.7,29.85,East,88,0.0,3.0,75,0.00,,---,0.25,VWS V14.00,2013-05-22 21:10:00,
2013-05-22 17:11:00,60.5,52.5,29.85,East,88,0.0,3.0,75,0.00,,---,0.25,VWS V14.00,2013-05-22 21:11:00,
2013-05-22 17:12:00,60.4,52.5,29.85,East,88,0.0,3.0,75,0.00,,---,0.25,VWS V14.00,2013-05-22 21:12:00,
2013-05-22 17:14:00,60.4,52.8,29.85,East,88,0.0,0.0,76,0.00,,---,0.25,VWS V14.00,2013-05-22 21:14:00,
2013-05-22 17:15:00,60.2,52.6,29.85,East,88,0.0,1.0,76,0.00,,---,0.25,VWS V14.00,2013-05-22 21:15:00,
2013-05-22 17:16:00,60.1,52.5,29.85,East,88,0.0,1.0,76,0.00,,---,0.25,VWS V14.00,2013-05-22 21:16:00,
2013-05-22 17:17:00,60.1,52.5,29.85,East,91,0.0,1.0,76,0.00,,---,0.25,VWS V14.00,2013-05-22 21:17:00,
2013-05-22 17:19:00,59.9,52.7,29.85,East,91,0.0,1.0,77,0.00,,---,0.25,VWS V14.00,2013-05-22 21:19:00,
2013-05-22 17:20:00,59.8,52.6,29.85,East,91,0.0,1.0,77,0.00,,---,0.25,VWS V14.00,2013-05-22 21:20:00,
2013-05-22 17:21:00,59.8,52.6,29.85,East,91,0.0,1.0,77,0.00,,---,0.25,VWS V14.00,2013-05-22 21:21:00,
2013-05-22 17:22:00,59.8,52.6,29.85,East,91,0.0,1.0,77,0.00,,---,0.25,VWS V14.00,2013-05-22 21:22:00,
2013-05-22 17:24:00,59.6,52.4,29.85,East,91,0.0,1.0,77,0.00,,---,0.25,VWS V14.00,2013-05-22 21:24:00,
2013-05-22 17:25:00,59.6,52.4,29.85,East,91,0.0,1.0,77,0.00,,---,0.25,VWS V14.00,2013-05-22 21:25:00,
2013-05-22 17:26:00,59.6,52.4,29.85,East,91,1.0,1.0,77,0.00,,---,0.25,VWS V14.00,2013-05-22 21:26:00,
2013-05-22 17:27:00,59.6,52.4,29.85,East,91,0.0,1.0,77,0.00,,---,0.25,VWS V14.00,2013-05-22 21:27:00,
2013-05-22 17:29:00,59.5,52.3,29.85,East,89,0.0,1.0,77,0.00,,---,0.25,VWS V14.00,2013-05-22 21:29:00,
2013-05-22 17:30:00,59.3,52.1,29.85,East,89,0.0,1.0,77,0.00,,---,0.25,VWS V14.00,2013-05-22 21:30:00,
2013-05-22 17:31:00,59.3,52.1,29.85,East,89,0.0,1.0,77,0.00,,---,0.25,VWS V14.00,2013-05-22 21:31:00,
2013-05-22 17:32:00,59.3,52.5,29.85,ENE,71,0.0,3.0,78,0.00,,---,0.25,VWS V14.00,2013-05-22 21:32:00,
2013-05-22 17:34:00,59.2,52.3,29.85,ENE,72,0.0,3.0,78,0.00,,---,0.25,VWS V14.00,2013-05-22 21:34:00,
2013-05-22 17:35:00,59.0,52.2,29.85,ENE,72,2.0,3.0,78,0.00,,---,0.25,VWS V14.00,2013-05-22 21:35:00,
2013-05-22 17:36:00,59.0,52.2,29.85,ENE,74,0.0,3.0,78,0.00,,---,0.25,VWS V14.00,2013-05-22 21:36:00,
2013-05-22 17:37:00,58.9,52.1,29.85,ENE,74,0.0,3.0,78,0.00,,---,0.25,VWS V14.00,2013-05-22 21:37:00,
2013-05-22 17:40:00,58.7,52.2,29.85,SSE,159,0.0,3.0,79,0.00,,---,0.25,VWS V14.00,2013-05-22 21:40:00,
2013-05-22 17:41:00,58.7,52.2,29.85,SSE,155,0.0,3.0,79,0.00,,---,0.25,VWS V14.00,2013-05-22 21:41:00,
2013-05-22 17:43:00,58.6,52.1,29.85,ESE,107,1.0,3.0,79,0.00,,---,0.25,VWS V14.00,2013-05-22 21:43:00,
2013-05-22 17:45:00,58.4,51.9,29.84,ESE,111,0.0,2.0,79,0.00,,---,0.25,VWS V14.00,2013-05-22 21:45:00,
2013-05-22 17:46:00,58.3,51.8,29.84,ESE,111,0.0,2.0,79,0.00,,---,0.25,VWS V14.00,2013-05-22 21:46:00,
2013-05-22 17:47:00,58.3,51.8,29.84,ESE,111,0.0,2.0,79,0.00,,---,0.25,VWS V14.00,2013-05-22 21:47:00,
2013-05-22 17:48:00,58.3,51.8,29.84,ESE,111,0.0,2.0,79,0.00,,---,0.25,VWS V14.00,2013-05-22 21:48:00,
2013-05-22 17:50:00,58.1,52.0,29.84,ESE,111,1.0,2.0,80,0.00,,---,0.25,VWS V14.00,2013-05-22 21:50:00,
2013-05-22 17:51:00,58.1,52.0,29.84,East,82,3.0,3.0,80,0.00,,---,0.25,VWS V14.00,2013-05-22 21:51:00,
2013-05-22 17:52:00,58.1,52.0,29.84,ESE,106,3.0,3.0,80,0.00,,---,0.25,VWS V14.00,2013-05-22 21:52:00,
2013-05-22 17:53:00,58.0,51.5,29.84,East,88,1.0,3.0,79,0.00,,---,0.25,VWS V14.00,2013-05-22 21:53:00,
2013-05-22 17:55:00,57.8,51.3,29.84,East,85,0.0,3.0,79,0.00,,---,0.25,VWS V14.00,2013-05-22 21:55:00,
2013-05-22 17:56:00,57.6,51.1,29.84,East,94,0.0,3.0,79,0.00,,---,0.25,VWS V14.00,2013-05-22 21:56:00,
2013-05-22 17:57:00,57.6,51.5,29.84,East,94,1.0,3.0,80,0.00,,---,0.25,VWS V14.00,2013-05-22 21:57:00,
2013-05-22 17:58:00,57.6,51.5,29.84,East,94,0.0,3.0,80,0.00,,---,0.25,VWS V14.00,2013-05-22 21:58:00,
2013-05-22 18:00:00,57.6,51.5,29.85,East,94,0.0,1.0,80,0.00,,---,0.25,VWS V14.00,2013-05-22 22:00:00,
2013-05-22 18:02:00,57.5,51.4,29.85,East,92,0.0,1.0,80,0.00,,---,0.25,VWS V14.00,2013-05-22 22:02:00,
2013-05-22 18:03:00,57.5,51.7,29.85,ESE,110,1.0,2.0,81,0.00,,---,0.25,VWS V14.00,2013-05-22 22:03:00,
2013-05-22 18:06:00,57.5,51.7,29.85,ESE,108,0.0,2.0,81,0.00,,---,0.25,VWS V14.00,2013-05-22 22:06:00,
2013-05-22 18:07:00,57.5,51.7,29.85,ESE,108,0.0,2.0,81,0.00,,---,0.25,VWS V14.00,2013-05-22 22:07:00,
2013-05-22 18:08:00,57.5,51.7,29.85,ESE,102,2.0,2.0,81,0.00,,---,0.25,VWS V14.00,2013-05-22 22:08:00,
2013-05-22 18:11:00,57.3,51.5,29.85,ENE,73,0.0,3.0,81,0.00,,---,0.25,VWS V14.00,2013-05-22 22:11:00,
2013-05-22 18:12:00,57.3,51.5,29.85,ENE,73,0.0,3.0,81,0.00,,---,0.25,VWS V14.00,2013-05-22 22:12:00,
2013-05-22 18:13:00,57.3,51.5,29.85,ENE,73,0.0,3.0,81,0.00,,---,0.25,VWS V14.00,2013-05-22 22:13:00,
2013-05-22 18:15:00,57.3,51.5,29.86,ENE,73,0.0,3.0,81,0.00,,---,0.25,VWS V14.00,2013-05-22 22:15:00,
2013-05-22 18:16:00,57.2,51.4,29.86,ENE,73,0.0,1.0,81,0.00,,---,0.25,VWS V14.00,2013-05-22 22:16:00,
2013-05-22 18:17:00,57.2,51.4,29.86,ENE,73,1.0,1.0,81,0.00,,---,0.25,VWS V14.00,2013-05-22 22:17:00,
2013-05-22 18:18:00,57.2,51.4,29.86,ENE,73,1.0,2.0,81,0.00,,---,0.25,VWS V14.00,2013-05-22 22:18:00,
2013-05-22 18:21:00,57.0,51.6,29.86,ENE,72,0.0,2.0,82,0.00,,---,0.25,VWS V14.00,2013-05-22 22:21:00,
2013-05-22 18:22:00,57.0,51.6,29.86,ENE,73,0.0,2.0,82,0.00,,---,0.25,VWS V14.00,2013-05-22 22:22:00,
2013-05-22 18:23:00,56.9,51.5,29.86,East,84,0.0,3.0,82,0.00,,---,0.25,VWS V14.00,2013-05-22 22:23:00,
2013-05-22 18:26:00,56.9,51.5,29.86,East,84,0.0,3.0,82,0.00,,---,0.25,VWS V14.00,2013-05-22 22:26:00,
2013-05-22 18:27:00,56.9,51.5,29.86,East,84,0.0,3.0,82,0.00,,---,0.25,VWS V14.00,2013-05-22 22:27:00,
2013-05-22 18:28:00,56.7,51.3,29.86,East,84,0.0,3.0,82,0.00,,---,0.25,VWS V14.00,2013-05-22 22:28:00,
2013-05-22 18:30:00,56.7,51.3,29.86,East,84,0.0,3.0,82,0.00,,---,0.25,VWS V14.00,2013-05-22 22:30:00,
2013-05-22 18:31:00,56.7,51.6,29.86,East,84,0.0,2.0,83,0.00,,---,0.25,VWS V14.00,2013-05-22 22:31:00,
2013-05-22 18:32:00,56.6,51.5,29.86,East,84,0.0,2.0,83,0.00,,---,0.25,VWS V14.00,2013-05-22 22:32:00,
2013-05-22 18:33:00,56.6,51.5,29.86,East,84,1.0,2.0,83,0.00,,---,0.25,VWS V14.00,2013-05-22 22:33:00,
2013-05-22 18:36:00,56.5,51.4,29.86,ESE,106,2.0,3.0,83,0.00,,---,0.25,VWS V14.00,2013-05-22 22:36:00,
2013-05-22 18:37:00,56.5,51.4,29.86,ESE,108,0.0,3.0,83,0.00,,---,0.25,VWS V14.00,2013-05-22 22:37:00,
2013-05-22 18:39:00,56.5,51.4,29.86,ESE,107,0.0,3.0,83,0.00,,---,0.25,VWS V14.00,2013-05-22 22:39:00,
2013-05-22 18:41:00,56.3,51.2,29.86,ESE,102,0.0,3.0,83,0.00,,---,0.25,VWS V14.00,2013-05-22 22:41:00,
2013-05-22 18:42:00,56.3,51.2,29.86,ESE,102,0.0,3.0,83,0.00,,---,0.25,VWS V14.00,2013-05-22 22:42:00,
2013-05-22 18:44:00,56.3,51.2,29.86,ESE,102,0.0,3.0,83,0.00,,---,0.25,VWS V14.00,2013-05-22 22:44:00,
2013-05-22 18:45:00,56.3,51.2,29.86,ESE,102,0.0,3.0,83,0.00,,---,0.25,VWS V14.00,2013-05-22 22:45:00,
2013-05-22 18:46:00,56.3,51.5,29.86,East,101,0.0,1.0,84,0.00,,---,0.25,VWS V14.00,2013-05-22 22:46:00,
2013-05-22 18:47:00,56.3,51.5,29.86,East,101,0.0,1.0,84,0.00,,---,0.25,VWS V14.00,2013-05-22 22:47:00,
2013-05-22 18:49:00,56.3,51.5,29.86,East,101,0.0,1.0,84,0.00,,---,0.25,VWS V14.00,2013-05-22 22:49:00,
2013-05-22 18:52:00,56.2,51.4,29.86,East,101,0.0,2.0,84,0.00,,---,0.25,VWS V14.00,2013-05-22 22:52:00,
2013-05-22 18:53:00,56.2,51.4,29.86,East,101,0.0,2.0,84,0.00,,---,0.25,VWS V14.00,2013-05-22 22:53:00,
2013-05-22 18:54:00,56.2,51.4,29.86,East,101,0.0,2.0,84,0.00,,---,0.25,VWS V14.00,2013-05-22 22:54:00,
2013-05-22 18:57:00,56.0,51.2,29.86,East,100,0.0,2.0,84,0.00,,---,0.25,VWS V14.00,2013-05-22 22:57:00,
2013-05-22 18:58:00,56.0,51.2,29.86,East,98,1.0,2.0,84,0.00,,---,0.25,VWS V14.00,2013-05-22 22:58:00,
2013-05-22 18:59:00,56.0,51.2,29.88,East,98,0.0,0.0,84,0.00,,---,0.25,VWS V14.00,2013-05-22 22:59:00,
2013-05-22 19:00:00,56.0,51.2,29.88,East,98,0.0,2.0,84,0.00,,---,0.25,VWS V14.00,2013-05-22 23:00:00,
2013-05-22 19:02:00,56.0,51.2,29.88,East,98,0.0,1.0,84,0.00,,---,0.25,VWS V14.00,2013-05-22 23:02:00,
2013-05-22 19:03:00,56.0,51.2,29.88,East,98,0.0,1.0,84,0.00,,---,0.25,VWS V14.00,2013-05-22 23:03:00,
2013-05-22 19:04:00,56.0,51.2,29.88,East,98,0.0,1.0,84,0.00,,---,0.25,VWS V14.00,2013-05-22 23:04:00,
2013-05-22 19:07:00,56.0,51.2,29.88,East,97,0.0,2.0,84,0.00,,---,0.25,VWS V14.00,2013-05-22 23:07:00,
2013-05-22 19:08:00,56.0,51.2,29.88,East,97,0.0,2.0,84,0.00,,---,0.25,VWS V14.00,2013-05-22 23:08:00,
2013-05-22 19:09:00,56.0,51.2,29.88,East,97,1.0,2.0,84,0.00,,---,0.25,VWS V14.00,2013-05-22 23:09:00,
2013-05-22 19:12:00,55.9,51.1,29.88,East,97,1.0,2.0,84,0.00,,---,0.25,VWS V14.00,2013-05-22 23:12:00,
2013-05-22 19:13:00,55.9,51.1,29.88,East,96,0.0,2.0,84,0.00,,---,0.25,VWS V14.00,2013-05-22 23:13:00,
2013-05-22 19:14:00,55.9,51.1,29.88,East,96,0.0,0.0,84,0.00,,---,0.25,VWS V14.00,2013-05-22 23:14:00,
2013-05-22 19:15:00,55.9,51.1,29.88,East,96,0.0,2.0,84,0.00,,---,0.25,VWS V14.00,2013-05-22 23:15:00,
2013-05-22 19:17:00,55.9,51.1,29.88,East,96,1.0,3.0,84,0.00,,---,0.25,VWS V14.00,2013-05-22 23:17:00,
2013-05-22 19:18:00,55.7,51.0,29.88,East,96,0.0,3.0,84,0.00,,---,0.25,VWS V14.00,2013-05-22 23:18:00,
2013-05-22 19:19:00,55.7,51.0,29.88,East,96,0.0,3.0,84,0.00,,---,0.25,VWS V14.00,2013-05-22 23:19:00,
2013-05-22 19:22:00,55.7,51.0,29.88,East,100,0.0,3.0,84,0.00,,---,0.25,VWS V14.00,2013-05-22 23:22:00,
2013-05-22 19:24:00,55.7,51.0,29.88,East,99,0.0,3.0,84,0.00,,---,0.25,VWS V14.00,2013-05-22 23:24:00,
2013-05-22 19:25:00,55.7,51.0,29.88,East,99,0.0,3.0,84,0.00,,---,0.25,VWS V14.00,2013-05-22 23:25:00,
2013-05-22 19:27:00,55.6,51.2,29.88,East,100,0.0,3.0,85,0.00,,---,0.25,VWS V14.00,2013-05-22 23:27:00,
2013-05-22 19:29:00,55.6,51.2,29.88,East,99,0.0,0.0,85,0.00,,---,0.25,VWS V14.00,2013-05-22 23:29:00,
2013-05-22 19:30:00,55.6,51.2,29.88,East,99,0.0,0.0,85,0.00,,---,0.25,VWS V14.00,2013-05-22 23:30:00,
2013-05-22 19:32:00,55.6,51.2,29.88,East,99,0.0,1.0,85,0.00,,---,0.25,VWS V14.00,2013-05-22 23:32:00,
2013-05-22 19:34:00,55.6,51.2,29.88,East,99,0.0,1.0,85,0.00,,---,0.25,VWS V14.00,2013-05-22 23:34:00,
2013-05-22 19:35:00,55.6,51.2,29.88,East,99,0.0,1.0,85,0.00,,---,0.25,VWS V14.00,2013-05-22 23:35:00,
2013-05-22 19:37:00,55.6,51.2,29.88,East,99,0.0,1.0,85,0.00,,---,0.25,VWS V14.00,2013-05-22 23:37:00,
2013-05-22 19:39:00,55.6,51.2,29.88,East,99,0.0,1.0,85,0.00,,---,0.25,VWS V14.00,2013-05-22 23:39:00,
2013-05-22 19:40:00,55.6,51.2,29.88,East,99,0.0,1.0,85,0.00,,---,0.25,VWS V14.00,2013-05-22 23:40:00,
2013-05-22 19:43:00,55.6,51.2,29.88,East,99,0.0,1.0,85,0.00,,---,0.25,VWS V14.00,2013-05-22 23:43:00,
2013-05-22 19:44:00,55.4,51.0,29.88,East,100,0.0,0.0,85,0.00,,---,0.25,VWS V14.00,2013-05-22 23:44:00,
2013-05-22 19:45:00,55.4,51.0,29.88,East,99,0.0,0.0,85,0.00,,---,0.25,VWS V14.00,2013-05-22 23:45:00,
2013-05-22 19:48:00,55.4,51.0,29.88,East,99,0.0,1.0,85,0.00,,---,0.25,VWS V14.00,2013-05-22 23:48:00,
2013-05-22 19:49:00,55.4,51.0,29.88,East,99,0.0,1.0,85,0.00,,---,0.25,VWS V14.00,2013-05-22 23:49:00,
2013-05-22 19:50:00,55.4,51.0,29.88,East,99,0.0,1.0,85,0.00,,---,0.25,VWS V14.00,2013-05-22 23:50:00,
2013-05-22 19:53:00,55.4,51.0,29.88,East,99,0.0,1.0,85,0.00,,---,0.25,VWS V14.00,2013-05-22 23:53:00,
2013-05-22 19:54:00,55.3,50.9,29.88,East,99,0.0,1.0,85,0.00,,---,0.25,VWS V14.00,2013-05-22 23:54:00,
2013-05-22 19:55:00,55.3,50.9,29.88,East,99,0.0,1.0,85,0.00,,---,0.25,VWS V14.00,2013-05-22 23:55:00,
2013-05-22 19:56:00,55.3,50.9,29.88,East,99,0.0,1.0,85,0.00,,---,0.25,VWS V14.00,2013-05-22 23:56:00,
2013-05-22 19:58:00,55.3,50.9,29.89,East,99,0.0,1.0,85,0.00,,---,0.25,VWS V14.00,2013-05-22 23:58:00,
2013-05-22 20:00:00,55.3,50.9,29.89,East,99,0.0,1.0,85,0.00,,---,0.25,VWS V14.00,2013-05-23 00:00:00,
2013-05-22 20:01:00,55.3,50.9,29.89,East,99,0.0,1.0,85,0.00,,---,0.25,VWS V14.00,2013-05-23 00:01:00,
2013-05-22 20:03:00,55.1,50.7,29.89,East,99,0.0,1.0,85,0.00,,---,0.25,VWS V14.00,2013-05-23 00:03:00,
2013-05-22 20:05:00,55.1,50.7,29.89,East,98,0.0,1.0,85,0.00,,---,0.25,VWS V14.00,2013-05-23 00:05:00,
2013-05-22 20:06:00,55.1,50.7,29.89,East,99,0.0,1.0,85,0.00,,---,0.25,VWS V14.00,2013-05-23 00:06:00,
2013-05-22 20:09:00,55.1,50.7,29.89,East,98,1.0,1.0,85,0.00,,---,0.25,VWS V14.00,2013-05-23 00:09:00,
2013-05-22 20:10:00,55.0,50.6,29.89,East,98,1.0,2.0,85,0.00,,---,0.25,VWS V14.00,2013-05-23 00:10:00,
2013-05-22 20:11:00,55.0,50.6,29.89,East,100,0.0,2.0,85,0.00,,---,0.25,VWS V14.00,2013-05-23 00:11:00,
2013-05-22 20:14:00,54.8,50.4,29.88,East,101,0.0,0.0,85,0.00,,---,0.25,VWS V14.00,2013-05-23 00:14:00,
2013-05-22 20:15:00,54.8,50.7,29.88,East,100,0.0,0.0,86,0.00,,---,0.25,VWS V14.00,2013-05-23 00:15:00,
2013-05-22 20:16:00,54.8,50.7,29.88,East,101,0.0,0.0,86,0.00,,---,0.25,VWS V14.00,2013-05-23 00:16:00,
2013-05-22 20:20:00,54.8,50.7,29.88,East,101,2.0,2.0,86,0.00,,---,0.25,VWS V14.00,2013-05-23 00:20:00,
2013-05-22 20:21:00,54.8,50.7,29.88,East,100,0.0,2.0,86,0.00,,---,0.25,VWS V14.00,2013-05-23 00:21:00,
2013-05-22 20:25:00,54.7,50.6,29.88,East,100,0.0,2.0,86,0.00,,---,0.25,VWS V14.00,2013-05-23 00:25:00,
2013-05-22 20:26:00,54.7,50.6,29.88,East,100,0.0,2.0,86,0.00,,---,0.25,VWS V14.00,2013-05-23 00:26:00,
2013-05-22 20:30:00,54.7,50.6,29.88,East,89,0.0,1.0,86,0.00,,---,0.25,VWS V14.00,2013-05-23 00:30:00,
2013-05-22 20:31:00,54.7,50.6,29.88,East,89,0.0,1.0,86,0.00,,---,0.25,VWS V14.00,2013-05-23 00:31:00,
2013-05-22 20:32:00,54.7,50.6,29.88,East,89,0.0,1.0,86,0.00,,---,0.25,VWS V14.00,2013-05-23 00:32:00,
2013-05-22 20:35:00,54.5,50.7,29.88,ESE,108,1.0,2.0,87,0.00,,---,0.25,VWS V14.00,2013-05-23 00:35:00,
2013-05-22 20:36:00,54.5,50.7,29.88,ESE,108,0.0,2.0,87,0.00,,---,0.25,VWS V14.00,2013-05-23 00:36:00,
2013-05-22 20:37:00,54.5,50.7,29.88,ESE,108,0.0,2.0,87,0.00,,---,0.25,VWS V14.00,2013-05-23 00:37:00,
2013-05-22 20:40:00,54.5,50.7,29.88,ESE,108,0.0,2.0,87,0.00,,---,0.25,VWS V14.00,2013-05-23 00:40:00,
2013-05-22 20:41:00,54.4,50.6,29.88,ESE,108,0.0,2.0,87,0.00,,---,0.25,VWS V14.00,2013-05-23 00:41:00,
2013-05-22 20:42:00,54.4,50.6,29.88,ESE,108,0.0,2.0,87,0.00,,---,0.25,VWS V14.00,2013-05-23 00:42:00,
2013-05-22 20:45:00,54.4,50.6,29.89,ESE,108,1.0,1.0,87,0.00,,---,0.25,VWS V14.00,2013-05-23 00:45:00,
2013-05-22 20:46:00,54.4,50.6,29.89,ESE,108,1.0,1.0,87,0.00,,---,0.25,VWS V14.00,2013-05-23 00:46:00,
2013-05-22 20:47:00,54.4,50.6,29.89,ENE,77,2.0,2.0,87,0.00,,---,0.25,VWS V14.00,2013-05-23 00:47:00,
2013-05-22 20:50:00,54.2,50.4,29.89,ENE,77,0.0,2.0,87,0.00,,---,0.25,VWS V14.00,2013-05-23 00:50:00,
2013-05-22 20:51:00,54.2,50.4,29.89,ENE,77,1.0,2.0,87,0.00,,---,0.25,VWS V14.00,2013-05-23 00:51:00,
2013-05-22 20:52:00,54.2,50.7,29.89,ENE,77,0.0,2.0,88,0.00,,---,0.25,VWS V14.00,2013-05-23 00:52:00,
2013-05-22 20:53:00,54.1,50.6,29.89,East,79,0.0,2.0,88,0.00,,---,0.25,VWS V14.00,2013-05-23 00:53:00,
2013-05-22 20:55:00,54.1,50.6,29.89,East,79,0.0,2.0,88,0.00,,---,0.25,VWS V14.00,2013-05-23 00:55:00,
2013-05-22 20:56:00,54.1,50.6,29.89,East,79,0.0,2.0,88,0.00,,---,0.25,VWS V14.00,2013-05-23 00:56:00,
2013-05-22 20:57:00,54.1,50.6,29.89,East,79,0.0,2.0,88,0.00,,---,0.25,VWS V14.00,2013-05-23 00:57:00,
2013-05-22 20:58:00,54.1,50.6,29.89,East,80,0.0,2.0,88,0.00,,---,0.25,VWS V14.00,2013-05-23 00:58:00,
2013-05-22 21:00:00,53.9,50.4,29.89,East,80,0.0,1.0,88,0.00,,---,0.25,VWS V14.00,2013-05-23 01:00:00,
2013-05-22 21:01:00,53.9,50.4,29.89,East,80,0.0,1.0,88,0.00,,---,0.25,VWS V14.00,2013-05-23 01:01:00,
2013-05-22 21:02:00,53.9,50.4,29.89,East,80,0.0,1.0,88,0.00,,---,0.25,VWS V14.00,2013-05-23 01:02:00,
2013-05-22 21:03:00,53.9,50.4,29.89,East,80,0.0,1.0,88,0.00,,---,0.25,VWS V14.00,2013-05-23 01:03:00,
2013-05-22 21:05:00,53.9,50.4,29.89,East,80,0.0,1.0,88,0.00,,---,0.25,VWS V14.00,2013-05-23 01:05:00,
2013-05-22 21:06:00,53.9,50.4,29.89,East,80,0.0,1.0,88,0.00,,---,0.25,VWS V14.00,2013-05-23 01:06:00,
2013-05-22 21:07:00,53.9,50.4,29.89,East,80,1.0,1.0,88,0.00,,---,0.25,VWS V14.00,2013-05-23 01:07:00,
2013-05-22 21:08:00,53.9,50.4,29.89,East,80,0.0,1.0,88,0.00,,---,0.25,VWS V14.00,2013-05-23 01:08:00,
2013-05-22 21:10:00,53.9,50.7,29.89,East,80,0.0,1.0,89,0.00,,---,0.25,VWS V14.00,2013-05-23 01:10:00,
2013-05-22 21:12:00,53.9,50.7,29.89,East,80,0.0,1.0,89,0.00,,---,0.25,VWS V14.00,2013-05-23 01:12:00,
2013-05-22 21:13:00,53.9,50.7,29.89,East,80,0.0,1.0,89,0.00,,---,0.25,VWS V14.00,2013-05-23 01:13:00,
2013-05-22 21:15:00,53.8,50.6,29.89,East,80,1.0,1.0,89,0.00,,---,0.25,VWS V14.00,2013-05-23 01:15:00,
2013-05-22 21:16:00,53.8,50.6,29.89,East,80,0.0,1.0,89,0.00,,---,0.25,VWS V14.00,2013-05-23 01:16:00,
2013-05-22 21:17:00,53.8,50.6,29.89,East,80,0.0,1.0,89,0.00,,---,0.25,VWS V14.00,2013-05-23 01:17:00,
2013-05-22 21:18:00,53.8,50.6,29.89,East,80,0.0,1.0,89,0.00,,---,0.25,VWS V14.00,2013-05-23 01:18:00,
2013-05-22 21:21:00,53.6,50.4,29.89,East,89,0.0,1.0,89,0.00,,---,0.25,VWS V14.00,2013-05-23 01:21:00,
2013-05-22 21:22:00,53.6,50.4,29.89,East,89,0.0,2.0,89,0.00,,---,0.25,VWS V14.00,2013-05-23 01:22:00,
2013-05-22 21:23:00,53.6,50.4,29.89,East,88,0.0,2.0,89,0.00,,---,0.25,VWS V14.00,2013-05-23 01:23:00,
2013-05-22 21:27:00,53.6,50.4,29.89,East,88,0.0,2.0,89,0.00,,---,0.25,VWS V14.00,2013-05-23 01:27:00,
2013-05-22 21:28:00,53.6,50.4,29.89,East,88,0.0,2.0,89,0.00,,---,0.25,VWS V14.00,2013-05-23 01:28:00,
2013-05-22 21:30:00,53.6,50.4,29.89,East,89,0.0,2.0,89,0.00,,---,0.25,VWS V14.00,2013-05-23 01:30:00,
2013-05-22 21:32:00,53.6,50.4,29.89,East,88,0.0,2.0,89,0.00,,---,0.25,VWS V14.00,2013-05-23 01:32:00,
2013-05-22 21:33:00,53.6,50.4,29.89,East,88,0.0,2.0,89,0.00,,---,0.25,VWS V14.00,2013-05-23 01:33:00,
2013-05-22 21:37:00,53.6,50.4,29.89,East,88,0.0,2.0,89,0.00,,---,0.25,VWS V14.00,2013-05-23 01:37:00,
2013-05-22 21:38:00,53.6,50.4,29.89,East,89,0.0,2.0,89,0.00,,---,0.25,VWS V14.00,2013-05-23 01:38:00,
2013-05-22 21:42:00,53.5,50.3,29.89,East,90,0.0,2.0,89,0.00,,---,0.25,VWS V14.00,2013-05-23 01:42:00,
2013-05-22 21:43:00,53.5,50.6,29.89,East,89,0.0,2.0,90,0.00,,---,0.25,VWS V14.00,2013-05-23 01:43:00,
2013-05-22 21:44:00,53.5,50.6,29.90,East,89,0.0,0.0,90,0.00,,---,0.25,VWS V14.00,2013-05-23 01:44:00,
2013-05-22 21:45:00,53.5,50.6,29.90,East,89,0.0,2.0,90,0.00,,---,0.25,VWS V14.00,2013-05-23 01:45:00,
2013-05-22 21:47:00,53.5,50.6,29.90,East,89,0.0,0.0,90,0.00,,---,0.25,VWS V14.00,2013-05-23 01:47:00,
2013-05-22 21:48:00,53.5,50.6,29.90,East,89,0.0,0.0,90,0.00,,---,0.25,VWS V14.00,2013-05-23 01:48:00,
2013-05-22 21:49:00,53.5,50.6,29.90,East,89,0.0,0.0,90,0.00,,---,0.25,VWS V14.00,2013-05-23 01:49:00,
2013-05-22 21:52:00,53.5,50.6,29.90,East,89,0.0,0.0,90,0.00,,---,0.25,VWS V14.00,2013-05-23 01:52:00,
2013-05-22 21:53:00,53.5,50.6,29.90,East,89,0.0,0.0,90,0.00,,---,0.25,VWS V14.00,2013-05-23 01:53:00,
2013-05-22 21:54:00,53.5,50.6,29.90,East,89,0.0,0.0,90,0.00,,---,0.25,VWS V14.00,2013-05-23 01:54:00,
2013-05-22 21:57:00,53.5,50.6,29.90,East,89,0.0,1.0,90,0.00,,---,0.25,VWS V14.00,2013-05-23 01:57:00,
2013-05-22 21:58:00,53.5,50.6,29.90,East,89,0.0,1.0,90,0.00,,---,0.25,VWS V14.00,2013-05-23 01:58:00,
2013-05-22 21:59:00,53.5,50.6,29.89,East,89,0.0,0.0,90,0.00,,---,0.25,VWS V14.00,2013-05-23 01:59:00,
2013-05-22 22:00:00,53.5,50.6,29.89,East,89,0.0,1.0,90,0.00,,---,0.25,VWS V14.00,2013-05-23 02:00:00,
2013-05-22 22:03:00,53.3,50.7,29.89,East,89,0.0,0.0,91,0.00,,---,0.25,VWS V14.00,2013-05-23 02:03:00,
2013-05-22 22:04:00,53.3,50.7,29.89,East,89,0.0,0.0,91,0.00,,---,0.25,VWS V14.00,2013-05-23 02:04:00,
2013-05-22 22:08:00,53.3,50.7,29.89,East,89,0.0,0.0,91,0.00,,---,0.25,VWS V14.00,2013-05-23 02:08:00,
2013-05-22 22:09:00,53.3,50.7,29.89,East,89,0.0,0.0,91,0.00,,---,0.25,VWS V14.00,2013-05-23 02:09:00,
2013-05-22 22:13:00,53.3,50.7,29.90,East,89,0.0,0.0,91,0.00,,---,0.25,VWS V14.00,2013-05-23 02:13:00,
2013-05-22 22:14:00,53.3,50.7,29.90,East,89,0.0,0.0,91,0.00,,---,0.25,VWS V14.00,2013-05-23 02:14:00,
2013-05-22 22:15:00,53.3,50.7,29.90,East,89,0.0,0.0,91,0.00,,---,0.25,VWS V14.00,2013-05-23 02:15:00,
2013-05-22 22:18:00,53.3,50.7,29.90,East,89,0.0,0.0,91,0.00,,---,0.25,VWS V14.00,2013-05-23 02:18:00,
2013-05-22 22:19:00,53.3,50.7,29.90,East,89,0.0,0.0,91,0.00,,---,0.25,VWS V14.00,2013-05-23 02:19:00,
2013-05-22 22:20:00,53.3,50.7,29.90,East,89,0.0,0.0,91,0.00,,---,0.25,VWS V14.00,2013-05-23 02:20:00,
2013-05-22 22:23:00,53.3,50.7,29.90,East,89,0.0,0.0,91,0.00,,---,0.25,VWS V14.00,2013-05-23 02:23:00,
2013-05-22 22:24:00,53.3,50.7,29.90,East,89,0.0,0.0,91,0.00,,---,0.25,VWS V14.00,2013-05-23 02:24:00,
2013-05-22 22:25:00,53.3,50.7,29.90,East,89,0.0,0.0,91,0.00,,---,0.25,VWS V14.00,2013-05-23 02:25:00,
2013-05-22 22:28:00,53.3,51.0,29.90,East,89,0.0,0.0,92,0.00,,---,0.25,VWS V14.00,2013-05-23 02:28:00,
2013-05-22 22:29:00,53.3,51.0,29.90,East,89,0.0,0.0,92,0.00,,---,0.25,VWS V14.00,2013-05-23 02:29:00,
2013-05-22 22:30:00,53.3,51.0,29.90,East,89,0.0,0.0,92,0.00,,---,0.25,VWS V14.00,2013-05-23 02:30:00,
2013-05-22 22:33:00,53.3,51.0,29.90,East,89,0.0,0.0,92,0.00,,---,0.25,VWS V14.00,2013-05-23 02:33:00,
2013-05-22 22:34:00,53.3,51.0,29.90,East,89,0.0,0.0,92,0.00,,---,0.25,VWS V14.00,2013-05-23 02:34:00,
2013-05-22 22:36:00,53.3,51.0,29.90,East,89,0.0,0.0,92,0.00,,---,0.25,VWS V14.00,2013-05-23 02:36:00,
2013-05-22 22:39:00,53.3,51.0,29.90,East,89,0.0,0.0,92,0.00,,---,0.25,VWS V14.00,2013-05-23 02:39:00,
2013-05-22 22:41:00,53.3,51.0,29.90,East,89,0.0,0.0,92,0.00,,---,0.25,VWS V14.00,2013-05-23 02:41:00,
2013-05-22 22:44:00,53.3,51.0,29.90,East,89,0.0,0.0,92,0.00,,---,0.25,VWS V14.00,2013-05-23 02:44:00,
2013-05-22 22:45:00,53.3,51.0,29.90,East,89,0.0,0.0,92,0.00,,---,0.25,VWS V14.00,2013-05-23 02:45:00,
2013-05-22 22:46:00,53.3,51.0,29.90,East,89,0.0,0.0,92,0.00,,---,0.25,VWS V14.00,2013-05-23 02:46:00,
2013-05-22 22:49:00,53.3,51.0,29.90,East,89,0.0,1.0,92,0.00,,---,0.25,VWS V14.00,2013-05-23 02:49:00,
2013-05-22 22:51:00,53.3,51.0,29.90,East,89,0.0,1.0,92,0.00,,---,0.25,VWS V14.00,2013-05-23 02:51:00,
2013-05-22 22:54:00,53.3,51.0,29.90,East,89,0.0,1.0,92,0.00,,---,0.25,VWS V14.00,2013-05-23 02:54:00,
2013-05-22 22:56:00,53.3,51.0,29.90,East,89,0.0,1.0,92,0.00,,---,0.25,VWS V14.00,2013-05-23 02:56:00,
2013-05-22 22:59:00,53.3,51.0,29.89,East,89,0.0,0.0,92,0.00,,---,0.25,VWS V14.00,2013-05-23 02:59:00,
2013-05-22 23:00:00,53.3,51.0,29.89,East,89,0.0,0.0,92,0.00,,---,0.25,VWS V14.00,2013-05-23 03:00:00,
2013-05-22 23:01:00,53.3,51.0,29.89,East,89,0.0,0.0,92,0.00,,---,0.25,VWS V14.00,2013-05-23 03:01:00,
2013-05-22 23:04:00,53.3,51.0,29.89,East,89,0.0,0.0,92,0.00,,---,0.25,VWS V14.00,2013-05-23 03:04:00,
2013-05-22 23:05:00,53.3,51.0,29.89,East,89,0.0,0.0,92,0.00,,---,0.25,VWS V14.00,2013-05-23 03:05:00,
2013-05-22 23:06:00,53.3,51.0,29.89,East,89,0.0,0.0,92,0.00,,---,0.25,VWS V14.00,2013-05-23 03:06:00,
2013-05-22 23:09:00,53.3,51.0,29.89,East,89,0.0,0.0,92,0.00,,---,0.25,VWS V14.00,2013-05-23 03:09:00,
2013-05-22 23:10:00,53.3,51.0,29.89,East,89,0.0,0.0,92,0.00,,---,0.25,VWS V14.00,2013-05-23 03:10:00,
2013-05-22 23:11:00,53.3,51.0,29.89,East,89,0.0,0.0,92,0.00,,---,0.25,VWS V14.00,2013-05-23 03:11:00,
2013-05-22 23:14:00,53.3,51.0,29.89,East,89,0.0,0.0,92,0.00,,---,0.25,VWS V14.00,2013-05-23 03:14:00,
2013-05-22 23:15:00,53.3,51.0,29.89,East,89,0.0,0.0,92,0.00,,---,0.25,VWS V14.00,2013-05-23 03:15:00,
2013-05-22 23:16:00,53.3,51.0,29.89,East,89,0.0,0.0,92,0.00,,---,0.25,VWS V14.00,2013-05-23 03:16:00,
2013-05-22 23:19:00,53.3,51.0,29.89,East,89,0.0,0.0,92,0.00,,---,0.25,VWS V14.00,2013-05-23 03:19:00,
2013-05-22 23:20:00,53.3,51.0,29.89,East,89,0.0,0.0,92,0.00,,---,0.25,VWS V14.00,2013-05-23 03:20:00,
2013-05-22 23:21:00,53.3,51.0,29.89,East,89,0.0,0.0,92,0.00,,---,0.25,VWS V14.00,2013-05-23 03:21:00,
2013-05-22 23:22:00,53.3,51.0,29.89,East,89,0.0,0.0,92,0.00,,---,0.25,VWS V14.00,2013-05-23 03:22:00,
2013-05-22 23:24:00,53.3,51.0,29.89,East,89,0.0,0.0,92,0.00,,---,0.25,VWS V14.00,2013-05-23 03:24:00,
2013-05-22 23:25:00,53.3,51.0,29.89,East,89,0.0,0.0,92,0.00,,---,0.25,VWS V14.00,2013-05-23 03:25:00,
2013-05-22 23:26:00,53.3,51.0,29.89,East,89,0.0,0.0,92,0.00,,---,0.25,VWS V14.00,2013-05-23 03:26:00,
2013-05-22 23:27:00,53.3,51.0,29.89,East,89,0.0,0.0,92,0.00,,---,0.25,VWS V14.00,2013-05-23 03:27:00,
2013-05-22 23:30:00,53.3,51.3,29.88,East,89,0.0,0.0,93,0.00,,---,0.25,VWS V14.00,2013-05-23 03:30:00,
2013-05-22 23:31:00,53.3,51.3,29.88,East,89,0.0,0.0,93,0.00,,---,0.25,VWS V14.00,2013-05-23 03:31:00,
2013-05-22 23:32:00,53.3,51.3,29.88,East,89,0.0,0.0,93,0.00,,---,0.25,VWS V14.00,2013-05-23 03:32:00,
2013-05-22 23:35:00,53.3,51.3,29.88,East,89,0.0,0.0,93,0.00,,---,0.25,VWS V14.00,2013-05-23 03:35:00,
2013-05-22 23:36:00,53.3,51.3,29.88,East,89,0.0,0.0,93,0.00,,---,0.25,VWS V14.00,2013-05-23 03:36:00,
2013-05-22 23:37:00,53.3,51.3,29.88,East,89,0.0,0.0,93,0.00,,---,0.25,VWS V14.00,2013-05-23 03:37:00,
2013-05-22 23:40:00,53.3,51.3,29.88,East,89,0.0,0.0,93,0.00,,---,0.25,VWS V14.00,2013-05-23 03:40:00,
2013-05-22 23:41:00,53.2,51.2,29.88,East,89,0.0,0.0,93,0.00,,---,0.25,VWS V14.00,2013-05-23 03:41:00,
2013-05-22 23:42:00,53.2,51.2,29.88,East,89,0.0,0.0,93,0.00,,---,0.25,VWS V14.00,2013-05-23 03:42:00,
2013-05-22 23:45:00,53.2,51.2,29.88,East,89,0.0,0.0,93,0.00,,---,0.25,VWS V14.00,2013-05-23 03:45:00,
2013-05-22 23:46:00,53.2,51.2,29.88,East,89,0.0,0.0,93,0.00,,---,0.25,VWS V14.00,2013-05-23 03:46:00,
2013-05-22 23:47:00,53.2,51.2,29.88,East,89,0.0,0.0,93,0.00,,---,0.25,VWS V14.00,2013-05-23 03:47:00,
2013-05-22 23:50:00,53.3,51.3,29.88,East,89,0.0,0.0,93,0.00,,---,0.25,VWS V14.00,2013-05-23 03:50:00,
2013-05-22 23:51:00,53.3,51.3,29.88,East,89,0.0,0.0,93,0.00,,---,0.25,VWS V14.00,2013-05-23 03:51:00,
2013-05-22 23:52:00,53.3,51.3,29.88,East,89,0.0,0.0,93,0.00,,---,0.25,VWS V14.00,2013-05-23 03:52:00,
2013-05-22 23:53:00,53.3,51.3,29.88,East,89,0.0,0.0,93,0.00,,---,0.25,VWS V14.00,2013-05-23 03:53:00,
2013-05-22 23:55:00,53.3,51.3,29.88,East,89,0.0,0.0,93,0.00,,---,0.25,VWS V14.00,2013-05-23 03:55:00,
2013-05-22 23:56:00,53.3,51.3,29.88,East,89,0.0,0.0,93,0.00,,---,0.25,VWS V14.00,2013-05-23 03:56:00,
2013-05-22 23:57:00,53.3,51.3,29.88,East,89,0.0,0.0,93,0.00,,---,0.25,VWS V14.00,2013-05-23 03:57:00,
2013-05-22 23:58:00,53.3,51.3,29.88,East,89,0.0,0.0,93,0.00,,---,0.25,VWS V14.00,2013-05-23 03:58:00,